LX1343 / HB-AZF 7700 Squawk Report (16th of May, 2022)

Time Lat Lon Altitude Heading Speed Vertical Rate
2022-05-16 10:01:08 GMT 47.463478 8.558075 0 137 0 0
2022-05-16 10:00:57 GMT 47.463474 8.558068 0 137 0 0
2022-05-16 10:00:22 GMT 47.463478 8.558075 0 137 0 0
2022-05-16 10:00:12 GMT 47.463486 8.558068 0 137 0 0
2022-05-16 10:00:02 GMT 47.463478 8.558075 0 137 0 0
2022-05-16 09:59:57 GMT 47.463486 8.558068 0 137 0 0
2022-05-16 09:59:52 GMT 47.463478 8.558075 0 137 0 0
2022-05-16 09:59:47 GMT 47.463486 8.558068 0 137 0 0
2022-05-16 09:59:37 GMT 47.463474 8.558068 0 137 0 0
2022-05-16 09:59:11 GMT 47.463486 8.558068 0 137 0 0
2022-05-16 09:59:01 GMT 47.463478 8.558075 0 137 0 0
2022-05-16 09:58:56 GMT 47.463474 8.558068 0 137 0 0
2022-05-16 09:58:51 GMT 47.463478 8.558075 0 137 0 0
2022-05-16 09:58:36 GMT 47.463474 8.558068 0 137 0 0
2022-05-16 09:58:31 GMT 47.463478 8.558075 0 137 0 0
2022-05-16 09:58:26 GMT 47.463478 8.558075 0 137 0 0
2022-05-16 09:58:21 GMT 47.463478 8.558075 0 137 0 0
2022-05-16 09:58:12 GMT 47.463486 8.558068 0 137 0 0
2022-05-16 09:58:06 GMT 47.463474 8.558068 0 137 0 0
2022-05-16 09:58:01 GMT 47.463478 8.558075 0 137 0 0
2022-05-16 09:57:56 GMT 47.463486 8.558068 0 137 0 0
2022-05-16 09:57:31 GMT 47.463474 8.558068 0 137 0 0
2022-05-16 09:57:21 GMT 47.463478 8.558075 0 137 0 0
2022-05-16 09:57:16 GMT 47.463474 8.558068 0 137 0 0
2022-05-16 09:57:01 GMT 47.463474 8.558068 0 137 0 0
2022-05-16 09:56:56 GMT 47.463474 8.558068 0 137 0 0
2022-05-16 09:56:46 GMT 47.463478 8.558075 0 137 0 0
2022-05-16 09:56:20 GMT 47.463474 8.558068 0 137 0 0
2022-05-16 09:56:15 GMT 47.463474 8.558086 0 137 0 0
2022-05-16 09:56:06 GMT 47.463474 8.558068 0 137 0 0
2022-05-16 09:55:56 GMT 47.463478 8.558075 0 137 0 0
2022-05-16 09:55:51 GMT 47.463478 8.558075 0 137 0 0
2022-05-16 09:55:41 GMT 47.463474 8.558068 0 137 0 0
2022-05-16 09:55:36 GMT 47.463474 8.558068 0 137 0 0
2022-05-16 09:55:31 GMT 47.463478 8.558075 0 137 0 0
2022-05-16 09:55:16 GMT 47.463474 8.558068 0 137 0 0
2022-05-16 09:55:11 GMT 47.463474 8.558068 0 137 0 0
2022-05-16 09:54:45 GMT 47.463474 8.558068 0 137 0 0
2022-05-16 09:54:40 GMT 47.463478 8.558075 0 137 0 0
2022-05-16 09:54:30 GMT 47.463474 8.558068 0 137 0 0
2022-05-16 09:54:11 GMT 47.463474 8.558068 0 137 0 0
2022-05-16 09:54:06 GMT 47.463474 8.558068 0 137 0 0
2022-05-16 09:54:01 GMT 47.463474 8.558068 0 137 0 0
2022-05-16 09:53:41 GMT 47.463474 8.558068 0 137 0 0
2022-05-16 09:53:21 GMT 47.463478 8.558075 0 137 0 0
2022-05-16 09:53:16 GMT 47.463486 8.558068 0 137 0 0
2022-05-16 09:53:06 GMT 47.463478 8.558075 0 137 0 0
2022-05-16 09:52:51 GMT 47.463478 8.558075 0 137 0 0
2022-05-16 09:52:37 GMT 47.463478 8.558075 0 137 0 0
2022-05-16 09:52:12 GMT 47.463486 8.558068 0 137 0 0
2022-05-16 09:52:07 GMT 47.463478 8.558075 0 137 0 0
2022-05-16 09:51:58 GMT 47.463486 8.558068 0 137 0 0
2022-05-16 09:51:43 GMT 47.463474 8.558068 0 137 0 0
2022-05-16 09:51:32 GMT 47.463474 8.558068 0 137 0 0
2022-05-16 09:51:22 GMT 47.463486 8.558068 0 137 0 0
2022-05-16 09:51:03 GMT 47.463478 8.558075 0 137 0 0
2022-05-16 09:50:58 GMT 47.463486 8.558068 0 137 0 0
2022-05-16 09:50:48 GMT 47.463478 8.558075 0 137 0 0
2022-05-16 09:50:43 GMT 47.463474 8.558068 0 137 0 0
2022-05-16 09:50:13 GMT 47.463478 8.558075 0 137 0 0
2022-05-16 09:50:03 GMT 47.463474 8.558068 0 137 0 0
2022-05-16 09:49:58 GMT 47.463478 8.558075 0 137 0 0
2022-05-16 09:49:37 GMT 47.463474 8.558068 0 137 0 0
2022-05-16 09:49:03 GMT 47.463474 8.558068 0 137 0 0
2022-05-16 09:48:53 GMT 47.463474 8.558068 0 137 0 0
2022-05-16 09:48:24 GMT 47.463478 8.558075 0 137 0 0
2022-05-16 09:48:18 GMT 47.463474 8.558068 0 137 0 0
2022-05-16 09:48:09 GMT 47.463474 8.558068 0 137 0 0
2022-05-16 09:48:04 GMT 47.463474 8.558068 0 137 0 0
2022-05-16 09:47:59 GMT 47.463478 8.558075 0 137 0 0
2022-05-16 09:47:44 GMT 47.463474 8.558068 0 137 0 0
2022-05-16 09:47:39 GMT 47.463478 8.558075 0 137 0 0
2022-05-16 09:47:20 GMT 47.463474 8.558068 0 137 0 0
2022-05-16 09:47:15 GMT 47.463478 8.558075 0 137 0 0
2022-05-16 09:47:00 GMT 47.463474 8.558068 0 137 0 0
2022-05-16 09:46:50 GMT 47.463474 8.558068 0 137 0 0
2022-05-16 09:46:45 GMT 47.463474 8.558068 0 137 0 0
2022-05-16 09:46:35 GMT 47.463478 8.558075 0 137 0 0
2022-05-16 09:46:24 GMT 47.463474 8.558068 0 137 0 0
2022-05-16 09:46:14 GMT 47.463474 8.558068 0 137 0 0
2022-05-16 09:46:09 GMT 47.463474 8.558068 0 137 0 0
2022-05-16 09:45:55 GMT 47.463478 8.558075 0 137 0 0
2022-05-16 09:45:45 GMT 47.463474 8.558068 0 137 0 0
2022-05-16 09:45:40 GMT 47.463478 8.558075 0 137 0 0
2022-05-16 09:45:30 GMT 47.463474 8.558068 0 137 0 0
2022-05-16 09:45:04 GMT 47.463478 8.558075 0 137 0 0
2022-05-16 09:44:50 GMT 47.463474 8.558068 0 137 0 0
2022-05-16 09:44:34 GMT 47.463478 8.558075 0 137 0 0
2022-05-16 09:44:19 GMT 47.463474 8.558068 0 137 0 0
2022-05-16 09:44:14 GMT 47.463478 8.558075 0 137 0 0
2022-05-16 09:44:10 GMT 47.463474 8.558068 0 137 0 0
2022-05-16 09:43:54 GMT 47.463474 8.558068 0 137 0 0
2022-05-16 09:43:49 GMT 47.463474 8.558068 0 137 0 0
2022-05-16 09:43:44 GMT 47.463478 8.558075 0 137 0 0
2022-05-16 09:43:39 GMT 47.463474 8.558068 0 137 0 0
2022-05-16 09:43:29 GMT 47.463478 8.558075 0 137 0 0
2022-05-16 09:43:23 GMT 47.463474 8.558068 0 137 0 0
2022-05-16 09:43:13 GMT 47.463478 8.558075 0 137 0 0
2022-05-16 09:43:08 GMT 47.463474 8.558086 0 137 0 0
2022-05-16 09:42:58 GMT 47.463478 8.558075 0 137 0 0
2022-05-16 09:42:53 GMT 47.463474 8.558068 0 137 0 0
2022-05-16 09:42:48 GMT 47.463474 8.558068 0 137 0 0
2022-05-16 09:42:14 GMT 47.463474 8.558068 0 137 0 0
2022-05-16 09:42:03 GMT 47.463478 8.558075 0 137 0 0
2022-05-16 09:41:59 GMT 47.463474 8.558068 0 137 0 0
2022-05-16 09:41:54 GMT 47.463478 8.558075 0 137 0 0
2022-05-16 09:41:49 GMT 47.463478 8.558075 0 137 0 0
2022-05-16 09:41:38 GMT 47.463478 8.558075 0 137 0 0
2022-05-16 09:41:33 GMT 47.463474 8.558068 0 137 0 0
2022-05-16 09:41:17 GMT 47.463478 8.558075 0 137 0 0
2022-05-16 09:41:12 GMT 47.463478 8.558075 0 137 0 0
2022-05-16 09:41:03 GMT 47.463474 8.558068 0 137 0 0
2022-05-16 09:40:38 GMT 47.463474 8.558068 0 137 0 0
2022-05-16 09:40:28 GMT 47.463478 8.558075 0 137 0 0
2022-05-16 09:40:13 GMT 47.463474 8.558068 0 137 0 0
2022-05-16 09:40:08 GMT 47.463478 8.558075 0 137 0 0
2022-05-16 09:39:51 GMT 47.463474 8.558068 0 137 0 0
2022-05-16 09:39:48 GMT 47.463478 8.558075 0 137 0 0
2022-05-16 09:39:44 GMT 47.463474 8.558068 0 137 0 0
2022-05-16 09:39:42 GMT 47.463474 8.558068 0 137 0 0
2022-05-16 09:39:35 GMT 47.463478 8.558075 0 137 0 0
2022-05-16 09:39:33 GMT 47.463478 8.558075 0 137 0 0
2022-05-16 09:39:31 GMT 47.463474 8.558068 0 137 0 0
2022-05-16 09:39:28 GMT 47.463474 8.558068 0 137 0 0
2022-05-16 09:39:26 GMT 47.463478 8.558075 0 137 0 0
2022-05-16 09:39:25 GMT 47.463486 8.558068 0 137 2 0
2022-05-16 09:39:22 GMT 47.463524 8.558006 0 137 6 0
2022-05-16 09:39:21 GMT 47.463577 8.557927 0 137 10 0
2022-05-16 09:39:19 GMT 47.463604 8.557892 0 137 12 0
2022-05-16 09:39:17 GMT 47.463696 8.557786 0 143 16 0
2022-05-16 09:39:16 GMT 47.463753 8.557714 0 146 16 0
2022-05-16 09:39:15 GMT 47.463879 8.557594 0 151 18 0
2022-05-16 09:39:13 GMT 47.463951 8.557540 0 154 18 0
2022-05-16 09:39:12 GMT 47.464027 8.557491 0 157 19 0
2022-05-16 09:39:10 GMT 47.464233 8.557371 0 165 21 0
2022-05-16 09:39:09 GMT 47.464325 8.557328 0 165 23 0
2022-05-16 09:39:08 GMT 47.464428 8.557302 0 168 24 0
2022-05-16 09:39:07 GMT 47.464626 8.557240 0 168 27 0
2022-05-16 09:39:05 GMT 47.464760 8.557199 0 168 28 0
2022-05-16 09:39:04 GMT 47.465023 8.557114 0 168 32 0
2022-05-16 09:39:01 GMT 47.465336 8.557012 0 165 32 0
2022-05-16 09:39:00 GMT 47.465652 8.556908 0 168 34 0
2022-05-16 09:38:58 GMT 47.465721 8.556890 0 168 35 0
2022-05-16 09:38:56 GMT 47.466152 8.556747 0 165 39 0
2022-05-16 09:38:55 GMT 47.466278 8.556695 0 163 40 0
2022-05-16 09:38:53 GMT 47.466640 8.556519 0 160 41 0
2022-05-16 09:38:51 GMT 47.467026 8.556255 0 154 44 0
2022-05-16 09:38:49 GMT 47.467350 8.556008 0 149 45 0
2022-05-16 09:38:48 GMT 47.467529 8.555843 0 146 45 0
2022-05-16 09:38:46 GMT 47.467873 8.555466 0 143 49 0
2022-05-16 09:38:45 GMT 47.468090 8.555208 0 140 51 0
2022-05-16 09:38:44 GMT 47.468445 8.554745 0 137 53 0
2022-05-16 09:38:41 GMT 47.468758 8.554335 1,175 137 54 0
2022-05-16 09:38:39 GMT 47.469177 8.553772 1,175 136 62 0
2022-05-16 09:38:38 GMT 47.469318 8.553561 1,175 136 62 0
2022-05-16 09:38:35 GMT 47.470001 8.552650 1,175 136 68 0
2022-05-16 09:38:32 GMT 47.470619 8.551800 1,175 137 73 0
2022-05-16 09:38:31 GMT 47.470871 8.551414 1,175 136 75 0
2022-05-16 09:38:29 GMT 47.471645 8.550392 1,150 137 79 -64
2022-05-16 09:38:27 GMT 47.472061 8.549758 1,150 137 81 -64
2022-05-16 09:38:25 GMT 47.472530 8.549124 1,175 137 85 -64
2022-05-16 09:38:24 GMT 47.473297 8.548119 1,150 137 89 -64
2022-05-16 09:38:23 GMT 47.473972 8.547152 1,150 137 91 -64
2022-05-16 09:38:21 GMT 47.474304 8.546745 1,150 136 94 -128
2022-05-16 09:38:19 GMT 47.474579 8.546402 1,150 136 97 -128
2022-05-16 09:38:18 GMT 47.474945 8.545853 1,150 137 99 -128
2022-05-16 09:38:15 GMT 47.475632 8.544891 1,150 136 105 -128
2022-05-16 09:38:13 GMT 47.476364 8.543861 1,150 136 108 -128
2022-05-16 09:38:11 GMT 47.477093 8.542926 1,150 136 124 -64
2022-05-16 09:38:09 GMT 47.478012 8.541664 1,175 136 128 -64
2022-05-16 09:38:07 GMT 47.478882 8.540428 1,175 137 132 0
2022-05-16 09:38:06 GMT 47.479370 8.539828 1,175 137 133 -384
2022-05-16 09:38:05 GMT 47.479797 8.539192 1,200 137 134 -384
2022-05-16 09:38:04 GMT 47.480255 8.538560 1,200 137 135 -320
2022-05-16 09:38:02 GMT 47.481190 8.537292 1,200 137 136 -448
2022-05-16 09:38:01 GMT 47.481674 8.536720 1,225 137 136 -576
2022-05-16 09:38:00 GMT 47.482121 8.536095 1,225 137 136 -704
2022-05-16 09:37:58 GMT 47.483051 8.534757 1,250 137 138 -832
2022-05-16 09:37:57 GMT 47.483467 8.534264 1,275 137 138 -768
2022-05-16 09:37:56 GMT 47.484585 8.532715 1,300 137 140 -896
2022-05-16 09:37:54 GMT 47.485062 8.532120 1,325 137 140 -896
2022-05-16 09:37:52 GMT 47.486076 8.530673 1,350 136 142 -704
2022-05-16 09:37:50 GMT 47.487350 8.528893 1,375 136 143 -768
2022-05-16 09:37:48 GMT 47.487846 8.528208 1,400 136 145 -576
2022-05-16 09:37:46 GMT 47.488823 8.526940 1,425 137 145 -832
2022-05-16 09:37:45 GMT 47.489502 8.525940 1,425 137 145 -896
2022-05-16 09:37:42 GMT 47.490509 8.524567 1,450 137 145 -704
2022-05-16 09:37:41 GMT 47.491516 8.523262 1,475 137 145 -704
2022-05-16 09:37:38 GMT 47.492779 8.521517 1,525 136 146 -768
2022-05-16 09:37:36 GMT 47.493755 8.520109 1,550 136 146 -832
2022-05-16 09:37:34 GMT 47.494968 8.518489 1,575 137 147 -768
2022-05-16 09:37:33 GMT 47.495991 8.517080 1,600 137 147 -768
2022-05-16 09:37:31 GMT 47.496277 8.516670 1,600 137 147 -768
2022-05-16 09:37:30 GMT 47.496967 8.515742 1,625 136 147 -1024
2022-05-16 09:37:28 GMT 47.497993 8.514334 1,650 136 147 -960
2022-05-16 09:37:27 GMT 47.498474 8.513718 1,675 137 147 -832
2022-05-16 09:37:26 GMT 47.499481 8.512276 1,700 137 147 -768
2022-05-16 09:37:24 GMT 47.499996 8.511658 1,700 137 147 -768
2022-05-16 09:37:22 GMT 47.501129 8.510147 1,750 137 147 -768
2022-05-16 09:37:20 GMT 47.502090 8.508774 1,750 137 147 -832
2022-05-16 09:37:19 GMT 47.502556 8.508136 1,775 136 146 -704
2022-05-16 09:37:18 GMT 47.503021 8.507503 1,800 136 146 -832
2022-05-16 09:37:17 GMT 47.503998 8.506165 1,825 136 145 -960
2022-05-16 09:37:15 GMT 47.504471 8.505478 1,825 136 145 -960
2022-05-16 09:37:14 GMT 47.504974 8.504826 1,850 137 144 -960
2022-05-16 09:37:12 GMT 47.505905 8.503559 1,875 136 143 -768
2022-05-16 09:37:11 GMT 47.506439 8.502800 1,900 136 143 -704
2022-05-16 09:37:10 GMT 47.506886 8.502150 1,900 136 143 -640
2022-05-16 09:37:08 GMT 47.507862 8.500812 1,925 137 142 -512
2022-05-16 09:37:07 GMT 47.508362 8.500191 1,925 137 142 -448
2022-05-16 09:37:06 GMT 47.509445 8.498699 1,950 137 142 -384
2022-05-16 09:37:04 GMT 47.509918 8.498062 1,950 137 142 -448
2022-05-16 09:37:02 GMT 47.510937 8.496657 1,975 137 141 -704
2022-05-16 09:37:00 GMT 47.511772 8.495530 2,000 137 141 -768
2022-05-16 09:36:59 GMT 47.512253 8.494904 2,000 137 140 -576
2022-05-16 09:36:57 GMT 47.513214 8.493599 2,025 137 141 -704
2022-05-16 09:36:54 GMT 47.514725 8.491539 2,050 137 142 -896
2022-05-16 09:36:51 GMT 47.516281 8.489410 2,125 136 146 -704
2022-05-16 09:36:44 GMT 47.519257 8.485291 2,200 136 146 -960
2022-05-16 09:36:42 GMT 47.520218 8.483917 2,250 136 146 -1088
2022-05-16 09:36:40 GMT 47.521225 8.482544 2,275 136 147 -768
2022-05-16 09:36:39 GMT 47.521873 8.481657 2,275 136 147 -576
2022-05-16 09:36:38 GMT 47.523132 8.479966 2,300 136 147 -768
2022-05-16 09:36:35 GMT 47.523735 8.479121 2,325 137 147 -832
2022-05-16 09:36:32 GMT 47.525272 8.477009 2,350 136 146 -896
2022-05-16 09:36:31 GMT 47.525803 8.476295 2,375 137 145 -896
2022-05-16 09:36:29 GMT 47.527176 8.474373 2,425 137 145 -576
2022-05-16 09:36:27 GMT 47.527695 8.473699 2,425 137 145 -512
2022-05-16 09:36:26 GMT 47.528778 8.472244 2,450 137 145 -448
2022-05-16 09:36:24 GMT 47.529190 8.471695 2,450 137 145 -576
2022-05-16 09:36:22 GMT 47.530487 8.469966 2,475 137 146 -832
2022-05-16 09:36:21 GMT 47.530930 8.469292 2,500 137 147 -832
2022-05-16 09:36:18 GMT 47.532257 8.467501 2,525 137 149 -1152
2022-05-16 09:36:17 GMT 47.532806 8.466820 2,550 137 149 -1152
2022-05-16 09:36:15 GMT 47.533585 8.465721 2,575 137 149 -1088
2022-05-16 09:36:14 GMT 47.534409 8.464622 2,625 137 149 -896
2022-05-16 09:36:13 GMT 47.534908 8.463909 2,625 137 149 -768
2022-05-16 09:36:12 GMT 47.536652 8.461601 2,650 137 149 -512
2022-05-16 09:36:09 GMT 47.536652 8.461601 2,650 137 149 -576
2022-05-16 09:36:08 GMT 47.537476 8.460503 2,675 137 149 -704
2022-05-16 09:36:07 GMT 47.537979 8.459825 2,675 137 149 -704
2022-05-16 09:36:06 GMT 47.538528 8.459129 2,700 137 150 -832
2022-05-16 09:36:03 GMT 47.540588 8.456314 2,750 137 152 -448
2022-05-16 09:36:00 GMT 47.541641 8.454941 2,750 137 154 -256
2022-05-16 09:35:58 GMT 47.543194 8.452782 2,775 136 156 -512
2022-05-16 09:35:57 GMT 47.543194 8.452782 2,775 137 158 -768
2022-05-16 09:35:54 GMT 47.544617 8.450890 2,825 137 159 -832
2022-05-16 09:35:53 GMT 47.545383 8.449824 2,850 138 162 -1088
2022-05-16 09:35:51 GMT 47.546455 8.448345 2,875 138 163 -768
2022-05-16 09:35:49 GMT 47.547318 8.447319 2,900 138 165 -640
2022-05-16 09:35:48 GMT 47.548187 8.446083 2,900 137 166 -1024
2022-05-16 09:35:46 GMT 47.549015 8.444965 2,950 136 166 -1152
2022-05-16 09:35:45 GMT 47.550133 8.443416 3,000 137 167 -1664
2022-05-16 09:35:44 GMT 47.550659 8.442719 3,025 137 167 -1792
2022-05-16 09:35:43 GMT 47.551296 8.441866 3,050 137 168 -1664
2022-05-16 09:35:40 GMT 47.552925 8.439754 3,100 138 167 -960
2022-05-16 09:35:39 GMT 47.553497 8.439011 3,100 138 169 -512
2022-05-16 09:35:37 GMT 47.554787 8.437289 3,125 138 169 -384
2022-05-16 09:35:34 GMT 47.556564 8.434959 3,175 138 172 -1280
2022-05-16 09:35:32 GMT 47.557625 8.433556 3,200 138 172 -1216
2022-05-16 09:35:31 GMT 47.558212 8.432762 3,225 137 174 -1088
2022-05-16 09:35:30 GMT 47.558838 8.432007 3,250 137 174 -1088
2022-05-16 09:35:29 GMT 47.559402 8.431183 3,250 137 175 -1024
2022-05-16 09:35:27 GMT 47.560593 8.429535 3,300 137 177 -896
2022-05-16 09:35:26 GMT 47.561829 8.427956 3,325 137 178 -1088
2022-05-16 09:35:24 GMT 47.562420 8.427077 3,325 137 179 -1152
2022-05-16 09:35:23 GMT 47.563065 8.426308 3,350 137 179 -1024
2022-05-16 09:35:20 GMT 47.565166 8.423415 3,400 137 185 -960
2022-05-16 09:35:18 GMT 47.566269 8.421913 3,425 137 185 -1024
2022-05-16 09:35:16 GMT 47.567276 8.420540 3,425 136 187 -1024
2022-05-16 09:35:14 GMT 47.569016 8.418137 3,475 136 190 -896
2022-05-16 09:35:13 GMT 47.569336 8.417656 3,500 136 192 -960
2022-05-16 09:35:12 GMT 47.570618 8.415871 3,525 136 193 -896
2022-05-16 09:35:10 GMT 47.571625 8.414429 3,550 135 193 -896
2022-05-16 09:35:09 GMT 47.572803 8.412710 3,575 135 194 -1024
2022-05-16 09:35:06 GMT 47.573456 8.411819 3,600 135 195 -1024
2022-05-16 09:35:05 GMT 47.574188 8.410789 3,625 135 195 -1088
2022-05-16 09:35:03 GMT 47.575409 8.408978 3,650 135 195 -1216
2022-05-16 09:35:01 GMT 47.576668 8.407076 3,700 134 194 -1280
2022-05-16 09:34:59 GMT 47.577644 8.405668 3,725 135 194 -1408
2022-05-16 09:34:58 GMT 47.578716 8.404118 3,750 135 193 -1216
2022-05-16 09:34:56 GMT 47.579971 8.402287 3,775 135 193 -448
2022-05-16 09:34:55 GMT 47.580597 8.401314 3,800 136 193 -384
2022-05-16 09:34:54 GMT 47.580997 8.400808 3,800 136 193 -384
2022-05-16 09:34:52 GMT 47.582298 8.398977 3,800 137 193 -128
2022-05-16 09:34:51 GMT 47.582932 8.398087 3,800 137 193 -64
2022-05-16 09:34:48 GMT 47.584953 8.395456 3,800 139 194 128
2022-05-16 09:34:47 GMT 47.586071 8.394048 3,800 140 194 256
2022-05-16 09:34:46 GMT 47.586777 8.393280 3,800 142 195 384
2022-05-16 09:34:45 GMT 47.587234 8.392780 3,800 143 195 448
2022-05-16 09:34:44 GMT 47.589005 8.391019 3,775 147 195 256
2022-05-16 09:34:42 GMT 47.589653 8.390386 3,775 149 194 64
2022-05-16 09:34:41 GMT 47.590584 8.389611 3,775 152 194 0
2022-05-16 09:34:39 GMT 47.592167 8.388484 3,775 156 193 0
2022-05-16 09:34:38 GMT 47.593002 8.387993 3,775 158 192 -64
2022-05-16 09:34:37 GMT 47.593517 8.387709 3,775 161 191 -128
2022-05-16 09:34:36 GMT 47.596069 8.386482 3,775 163 191 -128
2022-05-16 09:34:34 GMT 47.596069 8.386482 3,775 164 191 -192
2022-05-16 09:34:31 GMT 47.598919 8.385456 3,775 166 192 -64
2022-05-16 09:34:30 GMT 47.599777 8.385109 3,800 166 192 0
2022-05-16 09:34:29 GMT 47.601562 8.384491 3,800 166 193 64
2022-05-16 09:34:27 GMT 47.602409 8.384188 3,800 167 193 -128
2022-05-16 09:34:26 GMT 47.603107 8.383977 3,800 167 193 -128
2022-05-16 09:34:24 GMT 47.604996 8.383324 3,800 167 193 -128
2022-05-16 09:34:23 GMT 47.605728 8.383118 3,800 167 193 -64
2022-05-16 09:34:22 GMT 47.608692 8.382146 3,800 168 193 256
2022-05-16 09:34:20 GMT 47.608692 8.382146 3,775 168 193 320
2022-05-16 09:34:18 GMT 47.612232 8.381230 3,775 169 193 448
2022-05-16 09:34:16 GMT 47.612232 8.381230 3,775 173 192 64
2022-05-16 09:34:15 GMT 47.614105 8.381058 3,775 179 191 -448
2022-05-16 09:34:12 GMT 47.615936 8.381195 3,800 184 189 -448
2022-05-16 09:34:11 GMT 47.616795 8.381301 3,800 190 187 -64
2022-05-16 09:34:10 GMT 47.617630 8.381538 3,800 193 187 128
2022-05-16 09:34:09 GMT 47.619919 8.382568 3,775 200 184 128
2022-05-16 09:34:07 GMT 47.619919 8.382568 3,775 201 185 64
2022-05-16 09:34:06 GMT 47.620705 8.382991 3,775 206 183 128
2022-05-16 09:34:04 GMT 47.622242 8.384188 3,775 211 182 128
2022-05-16 09:34:03 GMT 47.623638 8.385597 3,775 224 181 128
2022-05-16 09:34:01 GMT 47.624268 8.386414 3,775 224 181 128
2022-05-16 09:33:58 GMT 47.626198 8.389470 3,775 234 179 64
2022-05-16 09:33:57 GMT 47.627220 8.391935 3,775 243 178 -192
2022-05-16 09:33:54 GMT 47.627747 8.393486 3,775 250 177 -128
2022-05-16 09:33:52 GMT 47.628479 8.396713 3,775 254 176 -64
2022-05-16 09:33:49 GMT 47.628899 8.399752 3,775 261 177 -128
2022-05-16 09:33:48 GMT 47.629074 8.400970 3,775 262 178 -192
2022-05-16 09:33:45 GMT 47.629257 8.403305 3,800 263 177 -192
2022-05-16 09:33:43 GMT 47.629597 8.407006 3,800 263 178 0
2022-05-16 09:33:42 GMT 47.629597 8.407006 3,775 263 179 128
2022-05-16 09:33:39 GMT 47.629944 8.410583 3,775 263 179 128
2022-05-16 09:33:38 GMT 47.630154 8.412851 3,775 263 180 0
2022-05-16 09:33:35 GMT 47.630341 8.415316 3,775 263 180 64
2022-05-16 09:33:34 GMT 47.630493 8.416489 3,775 263 180 0
2022-05-16 09:33:31 GMT 47.630814 8.420403 3,775 263 180 -192
2022-05-16 09:33:30 GMT 47.631500 8.427750 3,775 261 199 -1024
2022-05-16 09:33:25 GMT 47.631500 8.427750 3,775 263 180 0
2022-05-16 09:33:23 GMT 47.631729 8.430222 3,775 263 180 -64
2022-05-16 09:33:21 GMT 47.632015 8.432852 3,775 263 180 -128
2022-05-16 09:33:18 GMT 47.632343 8.436373 3,775 263 180 128
2022-05-16 09:33:16 GMT 47.632668 8.440176 3,775 262 179 -128
2022-05-16 09:33:13 GMT 47.633057 8.443817 3,775 262 179 192
2022-05-16 09:33:10 GMT 47.633286 8.446358 3,775 262 179 192
2022-05-16 09:33:08 GMT 47.633694 8.450388 3,775 262 178 64
2022-05-16 09:33:06 GMT 47.633789 8.451164 3,775 262 177 128
2022-05-16 09:33:05 GMT 47.633926 8.452606 3,775 262 177 128
2022-05-16 09:33:02 GMT 47.634296 8.456233 3,775 262 176 128
2022-05-16 09:33:00 GMT 47.634521 8.458786 3,775 262 176 128
2022-05-16 09:32:58 GMT 47.634857 8.462360 3,750 263 177 64
2022-05-16 09:32:55 GMT 47.635071 8.464691 3,750 263 179 -64
2022-05-16 09:32:54 GMT 47.635368 8.467853 3,750 263 180 -128
2022-05-16 09:32:51 GMT 47.635509 8.469262 3,750 263 183 64
2022-05-16 09:32:50 GMT 47.635666 8.471077 3,750 263 184 -64
2022-05-16 09:32:49 GMT 47.635788 8.472290 3,775 263 185 -128
2022-05-16 09:32:48 GMT 47.636112 8.475882 3,775 263 187 -192
2022-05-16 09:32:46 GMT 47.636112 8.475882 3,775 263 188 -192
2022-05-16 09:32:44 GMT 47.636353 8.478699 3,775 263 190 64
2022-05-16 09:32:42 GMT 47.636532 8.480459 3,775 263 190 64
2022-05-16 09:32:40 GMT 47.636810 8.483136 3,775 262 192 -64
2022-05-16 09:32:39 GMT 47.637039 8.485497 3,775 262 195 -384
2022-05-16 09:32:37 GMT 47.637314 8.488106 3,800 262 196 -448
2022-05-16 09:32:36 GMT 47.637405 8.489204 3,800 262 197 -320
2022-05-16 09:32:34 GMT 47.637695 8.492009 3,800 261 197 -192
2022-05-16 09:32:33 GMT 47.637836 8.493206 3,800 261 198 -256
2022-05-16 09:32:31 GMT 47.638138 8.496140 3,825 261 198 -512
2022-05-16 09:32:30 GMT 47.638256 8.496939 3,825 261 199 -704
2022-05-16 09:32:28 GMT 47.638535 8.499615 3,850 261 199 -704
2022-05-16 09:32:26 GMT 47.638859 8.502362 3,875 261 199 -1024
2022-05-16 09:32:25 GMT 47.639091 8.504404 3,900 261 199 -1152
2022-05-16 09:32:24 GMT 47.639374 8.506920 3,950 261 200 -1152
2022-05-16 09:32:22 GMT 47.639465 8.507714 3,950 261 200 -1152
2022-05-16 09:32:20 GMT 47.639877 8.511246 4,000 261 200 -1152
2022-05-16 09:32:19 GMT 47.640022 8.512503 4,025 261 200 -1024
2022-05-16 09:32:17 GMT 47.640289 8.515091 4,050 261 200 -1024
2022-05-16 09:32:15 GMT 47.640442 8.516447 4,075 261 200 -1152
2022-05-16 09:32:14 GMT 47.640610 8.517769 4,100 261 200 -1216
2022-05-16 09:32:12 GMT 47.640884 8.520515 4,125 261 201 -1088
2022-05-16 09:32:11 GMT 47.641048 8.521869 4,150 262 201 -1088
2022-05-16 09:32:09 GMT 47.641342 8.524841 4,200 262 201 -1216
2022-05-16 09:32:08 GMT 47.641422 8.525672 4,200 262 201 -1216
2022-05-16 09:32:06 GMT 47.641747 8.528419 4,250 262 201 -1344
2022-05-16 09:32:05 GMT 47.641846 8.529785 4,275 262 202 -1280
2022-05-16 09:32:03 GMT 47.642166 8.533081 4,325 263 201 -1344
2022-05-16 09:32:02 GMT 47.642303 8.534405 4,325 263 201 -1344
2022-05-16 09:32:01 GMT 47.642715 8.538506 4,400 263 201 -1280
2022-05-16 09:31:59 GMT 47.642715 8.538506 4,400 262 202 -1216
2022-05-16 09:31:58 GMT 47.642990 8.541252 4,425 262 202 -1152
2022-05-16 09:31:56 GMT 47.643219 8.543999 4,475 262 202 -1280
2022-05-16 09:31:54 GMT 47.643402 8.545509 4,500 262 201 -1280
2022-05-16 09:31:53 GMT 47.643677 8.548325 4,550 262 201 -1408
2022-05-16 09:31:49 GMT 47.644180 8.553818 4,625 262 201 -1472
2022-05-16 09:31:48 GMT 47.644180 8.553818 4,650 262 201 -1472
2022-05-16 09:31:47 GMT 47.644447 8.556237 4,700 262 201 -1472
2022-05-16 09:31:44 GMT 47.644726 8.558983 4,725 262 200 -1408
2022-05-16 09:31:43 GMT 47.644958 8.561660 4,775 262 200 -1344
2022-05-16 09:31:41 GMT 47.645096 8.563019 4,800 262 200 -1344
2022-05-16 09:31:39 GMT 47.645370 8.565765 4,850 262 200 -1344
2022-05-16 09:31:38 GMT 47.645515 8.567082 4,875 262 199 -1408
2022-05-16 09:31:37 GMT 47.645645 8.568306 4,900 262 199 -1472
2022-05-16 09:31:36 GMT 47.645920 8.571053 4,950 262 199 -1600
2022-05-16 09:31:33 GMT 47.646240 8.573799 5,000 262 198 -1472
2022-05-16 09:31:31 GMT 47.646515 8.576546 5,050 261 198 -1472
2022-05-16 09:31:30 GMT 47.647007 8.580956 5,100 261 197 -1472
2022-05-16 09:31:28 GMT 47.647007 8.580956 5,125 261 197 -1472
2022-05-16 09:31:26 GMT 47.647331 8.583773 5,175 261 197 -1472
2022-05-16 09:31:25 GMT 47.647476 8.585060 5,200 261 197 -1472
2022-05-16 09:31:23 GMT 47.647751 8.587738 5,225 261 196 -1408
2022-05-16 09:31:22 GMT 47.647892 8.588914 5,275 261 196 -1408
2022-05-16 09:31:21 GMT 47.648029 8.590111 5,300 261 196 -1408
2022-05-16 09:31:20 GMT 47.648163 8.591446 5,325 261 196 -1408
2022-05-16 09:31:17 GMT 47.648529 8.594673 5,375 261 196 -1408
2022-05-16 09:31:16 GMT 47.648712 8.596596 5,400 261 196 -1408
2022-05-16 09:31:15 GMT 47.648849 8.597832 5,425 261 196 -1472
2022-05-16 09:31:13 GMT 47.649147 8.600746 5,475 262 195 -1536
2022-05-16 09:31:11 GMT 47.649490 8.603668 5,550 262 195 -1728
2022-05-16 09:31:10 GMT 47.649765 8.606277 5,600 262 195 -1920
2022-05-16 09:31:08 GMT 47.649895 8.607506 5,625 262 195 -1984
2022-05-16 09:31:07 GMT 47.649994 8.608818 5,675 262 196 -2048
2022-05-16 09:31:04 GMT 47.650406 8.612929 5,775 262 196 -2048
2022-05-16 09:31:03 GMT 47.650684 8.615535 5,825 262 196 -2048
2022-05-16 09:31:01 GMT 47.650818 8.616783 5,875 262 196 -1984
2022-05-16 09:30:59 GMT 47.651058 8.619267 5,925 262 196 -1856
2022-05-16 09:30:58 GMT 47.651478 8.623493 6,000 262 195 -1792
2022-05-16 09:30:56 GMT 47.651478 8.623493 6,025 262 195 -1728
2022-05-16 09:30:54 GMT 47.651756 8.626169 6,075 262 195 -1600
2022-05-16 09:30:52 GMT 47.652035 8.628845 6,125 262 195 -1664
2022-05-16 09:30:51 GMT 47.652237 8.631203 6,175 262 196 -1728
2022-05-16 09:30:48 GMT 47.652641 8.635183 6,275 263 196 -1728
2022-05-16 09:30:46 GMT 47.652779 8.636803 6,300 263 196 -1728
2022-05-16 09:30:43 GMT 47.653152 8.640747 6,500 263 196 -1728
2022-05-16 09:30:39 GMT 47.653610 8.645554 6,500 263 196 -1728
2022-05-16 09:30:38 GMT 47.653755 8.647437 6,550 263 196 -1792
2022-05-16 09:30:36 GMT 47.654022 8.650360 6,600 264 197 -1792
2022-05-16 09:30:35 GMT 47.654114 8.651459 6,625 264 197 -1792
2022-05-16 09:30:33 GMT 47.654343 8.654137 6,675 264 197 -1792
2022-05-16 09:30:32 GMT 47.654408 8.655396 6,725 264 197 -1792
2022-05-16 09:30:31 GMT 47.654526 8.656815 6,750 264 198 -1792
2022-05-16 09:30:30 GMT 47.654663 8.658394 6,775 264 198 -1792
2022-05-16 09:30:28 GMT 47.654892 8.661140 6,850 264 198 -1792
2022-05-16 09:30:27 GMT 47.655121 8.663818 6,900 264 199 -1728
2022-05-16 09:30:25 GMT 47.655201 8.665185 6,925 264 199 -1728
2022-05-16 09:30:22 GMT 47.656132 8.676453 7,100 264 200 -1728
2022-05-16 09:30:17 GMT 47.656132 8.676453 7,150 263 201 -1728
2022-05-16 09:30:16 GMT 47.656178 8.677157 7,175 263 201 -1728
2022-05-16 09:30:12 GMT 47.656551 8.681382 7,275 263 202 -1728
2022-05-16 09:30:10 GMT 47.656830 8.684833 7,325 263 202 -1728
2022-05-16 09:30:09 GMT 47.656952 8.686066 7,350 263 202 -1664
2022-05-16 09:30:07 GMT 47.657154 8.688707 7,400 263 203 -1664
2022-05-16 09:30:05 GMT 47.657387 8.691453 7,475 263 204 -1728
2022-05-16 09:30:03 GMT 47.657619 8.694270 7,525 263 204 -1728
2022-05-16 09:30:02 GMT 47.657776 8.695610 7,550 263 204 -1728
2022-05-16 09:30:00 GMT 47.658234 8.701241 7,650 264 205 -1600
2022-05-16 09:29:58 GMT 47.658234 8.701241 7,650 264 205 -1600
2022-05-16 09:29:56 GMT 47.658554 8.705154 7,825 264 206 -1856
2022-05-16 09:29:52 GMT 47.658920 8.709549 7,825 264 206 -1856
2022-05-16 09:29:51 GMT 47.659016 8.711031 7,850 264 206 -1920
2022-05-16 09:29:50 GMT 47.659149 8.712433 7,900 264 206 -1856
2022-05-16 09:29:46 GMT 47.659718 8.719412 8,050 264 207 -1920
2022-05-16 09:29:45 GMT 47.659718 8.719412 8,050 264 207 -1920
2022-05-16 09:29:44 GMT 47.659836 8.720879 8,075 264 207 -1920
2022-05-16 09:29:41 GMT 47.660229 8.725116 8,175 264 207 -1856
2022-05-16 09:29:39 GMT 47.660461 8.727933 8,225 263 207 -1920
2022-05-16 09:29:37 GMT 47.660694 8.730750 8,275 263 207 -1920
2022-05-16 09:29:34 GMT 47.661064 8.735258 8,400 263 207 -1920
2022-05-16 09:29:32 GMT 47.661209 8.737221 8,450 263 207 -1856
2022-05-16 09:29:31 GMT 47.661346 8.738638 8,475 263 207 -1856
2022-05-16 09:29:29 GMT 47.661621 8.741753 8,550 263 207 -1792
2022-05-16 09:29:28 GMT 47.661716 8.743145 8,575 263 207 -1792
2022-05-16 09:29:27 GMT 47.661903 8.745399 8,625 264 207 -1728
2022-05-16 09:29:25 GMT 47.662090 8.747652 8,650 264 207 -1728
2022-05-16 09:29:23 GMT 47.662354 8.750748 8,725 264 207 -1600
2022-05-16 09:29:21 GMT 47.662582 8.753563 8,775 264 208 -1600
2022-05-16 09:29:19 GMT 47.662975 8.758428 8,850 264 208 -1536
2022-05-16 09:29:15 GMT 47.663269 8.762077 8,925 264 209 -1536
2022-05-16 09:29:14 GMT 47.663345 8.762935 8,950 264 209 -1536
2022-05-16 09:29:11 GMT 47.663773 8.768394 9,100 264 210 -1472
2022-05-16 09:29:08 GMT 47.664139 8.772653 9,125 264 210 -1408
2022-05-16 09:29:07 GMT 47.664185 8.773476 9,225 263 211 -1344
2022-05-16 09:29:05 GMT 47.664509 8.777231 9,225 263 211 -1280
2022-05-16 09:29:02 GMT 47.665146 8.784462 9,275 263 212 -1152
2022-05-16 09:29:00 GMT 47.665146 8.784462 9,275 263 213 -1088
2022-05-16 09:28:57 GMT 47.665421 8.787964 9,325 263 214 -1024
2022-05-16 09:28:56 GMT 47.665627 8.790541 9,350 263 215 -960
2022-05-16 09:28:54 GMT 47.665813 8.792372 9,375 263 216 -896
2022-05-16 09:28:53 GMT 47.665970 8.794418 9,375 263 216 -896
2022-05-16 09:28:51 GMT 47.666199 8.797371 9,400 264 219 -768
2022-05-16 09:28:50 GMT 47.666557 8.801880 9,450 264 221 -704
2022-05-16 09:28:48 GMT 47.666840 8.804908 9,450 264 222 -640
2022-05-16 09:28:46 GMT 47.666840 8.804908 9,475 264 224 -576
2022-05-16 09:28:44 GMT 47.667023 8.807671 9,475 264 226 -576
2022-05-16 09:28:43 GMT 47.667206 8.809525 9,500 264 227 -576
2022-05-16 09:28:42 GMT 47.667305 8.811106 9,500 264 230 -576
2022-05-16 09:28:40 GMT 47.667572 8.814537 9,525 264 232 -576
2022-05-16 09:28:38 GMT 47.667847 8.817696 9,550 264 236 -704
2022-05-16 09:28:35 GMT 47.668327 8.823782 9,575 264 238 -704
2022-05-16 09:28:34 GMT 47.668327 8.823782 9,575 264 240 -768
2022-05-16 09:28:33 GMT 47.668606 8.827092 9,600 264 243 -768
2022-05-16 09:28:31 GMT 47.668716 8.828751 9,625 264 244 -832
2022-05-16 09:28:30 GMT 47.668884 8.830402 9,625 264 246 -960
2022-05-16 09:28:28 GMT 47.669121 8.833782 9,675 264 249 -1024
2022-05-16 09:28:25 GMT 47.669491 8.837797 9,700 264 251 -1088
2022-05-16 09:28:24 GMT 47.669586 8.839531 9,725 264 252 -1216
2022-05-16 09:28:23 GMT 47.669819 8.841952 9,750 264 255 -1344
2022-05-16 09:28:21 GMT 47.670135 8.845779 9,800 264 257 -1472
2022-05-16 09:28:19 GMT 47.670410 8.849281 9,850 264 259 -1600
2022-05-16 09:28:18 GMT 47.670547 8.851410 9,875 264 261 -1792
2022-05-16 09:28:17 GMT 47.670868 8.854980 9,950 264 262 -1856
2022-05-16 09:28:15 GMT 47.670982 8.856741 9,975 264 262 -1920
2022-05-16 09:28:14 GMT 47.671120 8.858220 10,000 264 265 -1920
2022-05-16 09:28:12 GMT 47.671398 8.861812 10,075 264 265 -1920
2022-05-16 09:28:11 GMT 47.671680 8.865403 10,125 264 267 -1856
2022-05-16 09:28:09 GMT 47.671921 8.867958 10,175 263 270 -1728
2022-05-16 09:28:08 GMT 47.672195 8.871666 10,225 264 271 -1600
2022-05-16 09:28:03 GMT 47.672749 8.877939 10,350 263 276 -1536
2022-05-16 09:28:00 GMT 47.673157 8.882858 10,350 264 279 -1536
2022-05-16 09:27:59 GMT 47.673309 8.884700 10,400 264 281 -1664
2022-05-16 09:27:57 GMT 47.673588 8.888573 10,450 264 281 -1664
2022-05-16 09:27:55 GMT 47.674026 8.893570 10,575 264 285 -1600
2022-05-16 09:27:52 GMT 47.674393 8.898239 10,575 264 287 -1664
2022-05-16 09:27:50 GMT 47.674751 8.902517 10,675 264 293 -1600
2022-05-16 09:27:47 GMT 47.675949 8.917328 10,850 264 293 -1600
2022-05-16 09:27:44 GMT 47.675949 8.917328 10,850 263 298 -1472
2022-05-16 09:27:40 GMT 47.676590 8.924675 10,875 263 300 -1536
2022-05-16 09:27:37 GMT 47.676956 8.928795 10,975 263 305 -1600
2022-05-16 09:27:36 GMT 47.677094 8.930443 11,000 263 306 -1536
2022-05-16 09:27:34 GMT 47.677414 8.933807 11,025 263 308 -1408
2022-05-16 09:27:33 GMT 47.677639 8.936744 11,075 263 311 -1408
2022-05-16 09:27:32 GMT 47.677872 8.939279 11,100 263 311 -1408
2022-05-16 09:27:30 GMT 47.678291 8.943505 11,150 263 314 -1536
2022-05-16 09:27:29 GMT 47.678429 8.945195 11,175 263 314 -1536
2022-05-16 09:27:27 GMT 47.678879 8.949944 11,225 262 320 -1600
2022-05-16 09:27:25 GMT 47.679779 8.959069 11,300 262 323 -1728
2022-05-16 09:27:23 GMT 47.679779 8.959069 11,425 262 324 -1856
2022-05-16 09:27:20 GMT 47.680344 8.964775 11,425 262 325 -2112
2022-05-16 09:27:18 GMT 47.680893 8.970062 11,500 261 329 -2624
2022-05-16 09:27:16 GMT 47.681271 8.973224 11,575 261 329 -2944
2022-05-16 09:27:15 GMT 47.681641 8.976746 11,675 261 330 -3200
2022-05-16 09:27:13 GMT 47.682083 8.980774 11,725 261 330 -3200
2022-05-16 09:27:12 GMT 47.682339 8.983013 11,800 261 330 -3392
2022-05-16 09:27:09 GMT 47.683086 8.989281 12,150 260 332 -3584
2022-05-16 09:27:06 GMT 47.683914 8.995949 12,150 260 332 -3584
2022-05-16 09:27:05 GMT 47.684761 9.002662 12,325 260 332 -3584
2022-05-16 09:27:03 GMT 47.684761 9.002662 12,325 260 332 -3584
2022-05-16 09:27:01 GMT 47.685413 9.008085 12,475 260 332 -3648
2022-05-16 09:26:59 GMT 47.685928 9.012085 12,575 260 333 -3520
2022-05-16 09:26:57 GMT 47.686523 9.016548 12,700 260 334 -3392
2022-05-16 09:26:55 GMT 47.687073 9.021080 13,000 260 334 -3392
2022-05-16 09:26:52 GMT 47.688019 9.028719 13,000 260 336 -3456
2022-05-16 09:26:50 GMT 47.688625 9.033297 13,100 260 336 -3456
2022-05-16 09:26:48 GMT 47.689182 9.037804 13,225 260 337 -3456
2022-05-16 09:26:47 GMT 47.689415 9.039635 13,275 260 337 -3456
2022-05-16 09:26:45 GMT 47.690067 9.045058 13,425 260 338 -3584
2022-05-16 09:26:43 GMT 47.690369 9.047379 13,475 260 338 -3584
2022-05-16 09:26:42 GMT 47.690674 9.049636 13,525 260 338 -3584
2022-05-16 09:26:41 GMT 47.691139 9.053298 13,625 260 338 -3648
2022-05-16 09:26:39 GMT 47.691696 9.057875 13,900 260 339 -3584
2022-05-16 09:26:36 GMT 47.692474 9.063789 13,900 260 340 -3520
2022-05-16 09:26:35 GMT 47.692768 9.066115 13,975 260 340 -3520
2022-05-16 09:26:33 GMT 47.693527 9.072029 14,075 260 341 -3456
2022-05-16 09:26:30 GMT 47.694260 9.077591 14,250 260 342 -3392
2022-05-16 09:26:29 GMT 47.694626 9.080338 14,300 259 344 -3328
2022-05-16 09:26:27 GMT 47.695187 9.084496 14,400 259 344 -3328
2022-05-16 09:26:25 GMT 47.695793 9.089074 15,100 262 350 -3584
2022-05-16 09:26:22 GMT 47.697189 9.099770 15,100 262 350 -3584
2022-05-16 09:26:19 GMT 47.697983 9.105835 15,100 262 350 -3584
2022-05-16 09:26:16 GMT 47.698772 9.112385 15,100 262 350 -3584
2022-05-16 09:26:13 GMT 47.699570 9.119476 15,375 262 350 -3584
2022-05-16 09:26:10 GMT 47.700497 9.128512 15,475 263 351 -3712
2022-05-16 09:26:09 GMT 47.700497 9.128512 15,475 263 351 -3712
2022-05-16 09:26:07 GMT 47.700962 9.133230 15,625 263 352 -3712
2022-05-16 09:26:05 GMT 47.701286 9.137104 15,700 263 352 -3712
2022-05-16 09:26:04 GMT 47.701660 9.140907 15,800 263 353 -3648
2022-05-16 09:26:02 GMT 47.702042 9.145226 15,875 263 353 -3648
2022-05-16 09:26:00 GMT 47.702358 9.148583 16,000 263 354 -3712
2022-05-16 09:25:58 GMT 47.702911 9.154839 16,425 263 357 -3904
2022-05-16 09:25:55 GMT 47.703568 9.162105 16,425 263 357 -3904
2022-05-16 09:25:52 GMT 47.704174 9.168865 16,525 263 357 -3904
2022-05-16 09:25:49 GMT 47.704926 9.177086 16,925 263 359 -4032
2022-05-16 09:25:45 GMT 47.705570 9.184429 17,050 263 359 -4032
2022-05-16 09:25:43 GMT 47.706177 9.191261 17,125 263 359 -4032
2022-05-16 09:25:40 GMT 47.706688 9.197106 17,400 263 360 -4032
2022-05-16 09:25:36 GMT 47.708408 9.216755 17,825 263 363 -3968
2022-05-16 09:25:33 GMT 47.709293 9.226685 18,800 263 365 -4032
2022-05-16 09:25:28 GMT 47.709293 9.226685 18,800 263 365 -4032
2022-05-16 09:25:25 GMT 47.710602 9.241013 18,800 263 366 -4096
2022-05-16 09:25:22 GMT 47.710602 9.241013 18,800 263 366 -4096
2022-05-16 09:25:19 GMT 47.711197 9.248016 18,800 263 367 -4032
2022-05-16 09:25:16 GMT 47.713028 9.268959 19,225 263 370 -4096
2022-05-16 09:25:12 GMT 47.713028 9.268959 19,225 263 370 -4096
2022-05-16 09:25:09 GMT 47.713394 9.273010 19,325 263 370 -4096
2022-05-16 09:25:06 GMT 47.714401 9.284065 19,625 263 371 -4032
2022-05-16 09:25:04 GMT 47.714600 9.286546 19,700 263 371 -4032
2022-05-16 09:25:01 GMT 47.715363 9.295189 19,925 263 371 -4032
2022-05-16 09:24:59 GMT 47.715729 9.299171 20,025 263 372 -3968
2022-05-16 09:24:56 GMT 47.716228 9.305772 20,200 264 372 -3904
2022-05-16 09:24:55 GMT 47.716461 9.308372 20,850 265 381 -2944
2022-05-16 09:24:53 GMT 47.717697 9.324715 20,850 265 381 -2944
2022-05-16 09:24:50 GMT 47.718140 9.331407 20,850 265 381 -2944
2022-05-16 09:24:47 GMT 47.718140 9.331407 20,850 265 381 -2944
2022-05-16 09:24:45 GMT 47.718613 9.338104 20,850 265 381 -2944
2022-05-16 09:24:42 GMT 47.719391 9.350601 21,100 266 384 -3136
2022-05-16 09:24:39 GMT 47.719391 9.350601 21,350 266 384 -3136
2022-05-16 09:24:35 GMT 47.719986 9.361107 21,450 267 388 -3328
2022-05-16 09:24:32 GMT 47.720581 9.372711 21,550 267 388 -3328
2022-05-16 09:24:29 GMT 47.720856 9.378067 21,775 267 388 -3328
2022-05-16 09:24:26 GMT 47.721130 9.385483 22,150 267 390 -3264
2022-05-16 09:24:23 GMT 47.721405 9.392967 22,150 268 393 -3264
2022-05-16 09:24:20 GMT 47.721725 9.402649 22,250 268 393 -3264
2022-05-16 09:24:17 GMT 47.722237 9.420565 22,675 268 397 -3136
2022-05-16 09:24:14 GMT 47.722237 9.420565 22,600 268 396 -3200
2022-05-16 09:24:10 GMT 47.722420 9.428171 22,950 268 398 -3072
2022-05-16 09:24:07 GMT 47.722687 9.436363 22,950 268 405 -3264
2022-05-16 09:24:04 GMT 47.722885 9.444580 23,200 268 405 -3264
2022-05-16 09:24:01 GMT 47.723145 9.453941 23,350 268 405 -3264
2022-05-16 09:23:58 GMT 47.723373 9.461632 23,375 268 405 -3264
2022-05-16 09:23:55 GMT 47.723583 9.469933 23,550 268 406 -3392
2022-05-16 09:23:52 GMT 47.724060 9.486145 23,750 268 407 -3968
2022-05-16 09:23:50 GMT 47.724285 9.494512 23,975 268 407 -3968
2022-05-16 09:23:47 GMT 47.724285 9.494512 24,200 268 406 -4672
2022-05-16 09:23:44 GMT 47.724468 9.500075 24,200 268 406 -4672
2022-05-16 09:23:42 GMT 47.724655 9.506695 24,450 268 403 -5376
2022-05-16 09:23:41 GMT 47.724701 9.509491 24,525 268 403 -5440
2022-05-16 09:23:39 GMT 47.724884 9.514984 24,750 268 401 -5248
2022-05-16 09:23:37 GMT 47.725021 9.520477 24,800 268 401 -4992
2022-05-16 09:23:35 GMT 47.725159 9.525970 25,025 268 401 -4416
2022-05-16 09:23:32 GMT 47.725353 9.532048 25,175 268 405 -3392
2022-05-16 09:23:30 GMT 47.725586 9.539795 25,350 268 413 -2176
2022-05-16 09:23:27 GMT 47.725914 9.550993 25,450 268 413 -2176
2022-05-16 09:23:24 GMT 47.726097 9.557824 25,650 268 420 -2560
2022-05-16 09:23:20 GMT 47.726425 9.569233 25,900 268 419 -2560
2022-05-16 09:23:18 GMT 47.726566 9.575008 25,900 268 420 -2560
2022-05-16 09:23:14 GMT 47.726936 9.588811 26,050 268 423 -2432
2022-05-16 09:23:11 GMT 47.727127 9.594017 26,325 268 423 -2432
2022-05-16 09:23:09 GMT 47.727310 9.601558 26,225 268 423 -2368
2022-05-16 09:23:06 GMT 47.727589 9.610784 26,350 268 424 -2304
2022-05-16 09:23:03 GMT 47.727768 9.618324 26,425 268 425 -2240
2022-05-16 09:23:00 GMT 47.728008 9.627052 26,550 268 425 -2304
2022-05-16 09:22:58 GMT 47.728195 9.632897 26,650 268 428 -2368
2022-05-16 09:22:55 GMT 47.728638 9.648743 26,775 268 428 -2432
2022-05-16 09:22:52 GMT 47.728867 9.658150 26,900 268 429 -2432
2022-05-16 09:22:49 GMT 47.728867 9.658150 27,025 268 430 -2496
2022-05-16 09:22:46 GMT 47.729141 9.667557 27,100 268 431 -2496
2022-05-16 09:22:43 GMT 47.729416 9.677032 27,250 268 432 -2624
2022-05-16 09:22:40 GMT 47.729645 9.685341 27,550 268 433 0
2022-05-16 09:22:37 GMT 47.729828 9.692413 27,550 268 433 0
2022-05-16 09:22:34 GMT 47.730148 9.704292 27,650 268 434 -2880
2022-05-16 09:22:31 GMT 47.730377 9.711433 27,750 268 434 -2880
2022-05-16 09:22:28 GMT 47.730659 9.722760 27,975 268 435 -2880
2022-05-16 09:22:25 GMT 47.731129 9.740648 28,100 268 435 -2880
2022-05-16 09:22:22 GMT 47.731129 9.740648 28,225 268 436 -2880
2022-05-16 09:22:19 GMT 47.731312 9.746634 28,425 268 437 -2880
2022-05-16 09:22:16 GMT 47.731544 9.755014 28,500 268 437 -2944
2022-05-16 09:22:13 GMT 47.731731 9.763324 28,600 268 437 -3072
2022-05-16 09:22:10 GMT 47.732025 9.773506 30,000 268 437 -3136
2022-05-16 09:22:06 GMT 47.732338 9.784875 29,075 268 438 -2688
2022-05-16 09:22:03 GMT 47.732620 9.796303 29,200 268 438 -2688
2022-05-16 09:22:00 GMT 47.732803 9.803513 29,550 268 439 -2368
2022-05-16 09:21:56 GMT 47.733124 9.815529 29,450 268 440 -2240
2022-05-16 09:21:53 GMT 47.733593 9.834243 29,600 268 441 -1920
2022-05-16 09:21:50 GMT 47.733593 9.834243 29,650 268 442 -1664
2022-05-16 09:21:47 GMT 47.733902 9.845741 29,775 268 442 -1664
2022-05-16 09:21:44 GMT 47.734039 9.851784 29,900 268 442 -1216
2022-05-16 09:21:41 GMT 47.734245 9.859666 30,000 268 444 0
2022-05-16 09:21:38 GMT 47.734543 9.869911 29,975 268 443 -1024
2022-05-16 09:21:36 GMT 47.734711 9.877836 29,975 268 443 -448
2022-05-16 09:21:33 GMT 47.735176 9.896005 30,000 268 444 -256
2022-05-16 09:21:30 GMT 47.735363 9.903330 30,000 268 444 0
2022-05-16 09:21:27 GMT 47.735363 9.903330 30,000 268 444 0
2022-05-16 09:21:24 GMT 47.735687 9.915513 30,000 268 444 0
2022-05-16 09:21:21 GMT 47.735870 9.923401 30,000 268 444 0
2022-05-16 09:21:18 GMT 47.736053 9.930679 30,000 268 444 0
2022-05-16 09:21:16 GMT 47.736465 9.946472 30,000 268 444 64
2022-05-16 09:21:13 GMT 47.736465 9.946472 30,000 268 444 64
2022-05-16 09:21:10 GMT 47.736668 9.955656 30,000 268 444 -64
2022-05-16 09:21:06 GMT 47.737289 9.979362 30,000 269 444 -64
2022-05-16 09:21:03 GMT 47.737610 9.992683 30,000 268 444 -64
2022-05-16 09:20:58 GMT 47.737610 9.992683 30,000 268 443 -64
2022-05-16 09:20:54 GMT 47.737885 10.004837 30,000 268 443 64
2022-05-16 09:20:51 GMT 47.738110 10.012770 30,000 268 443 64
2022-05-16 09:20:47 GMT 47.738342 10.023686 30,000 268 443 0
2022-05-16 09:20:44 GMT 47.738621 10.035799 30,000 268 443 0
2022-05-16 09:20:41 GMT 47.738846 10.043701 30,000 269 444 64
2022-05-16 09:20:38 GMT 47.739086 10.054040 30,000 268 444 64
2022-05-16 09:20:35 GMT 47.739227 10.060096 30,000 268 444 64
2022-05-16 09:20:32 GMT 47.739532 10.072884 30,000 269 445 0
2022-05-16 09:20:29 GMT 47.739716 10.080162 30,000 269 445 -64
2022-05-16 09:20:26 GMT 47.739925 10.090520 30,000 268 445 -192
2022-05-16 09:20:22 GMT 47.740173 10.099731 30,025 268 446 -448
2022-05-16 09:20:19 GMT 47.740391 10.110098 30,025 268 446 -448
2022-05-16 09:20:15 GMT 47.740677 10.121704 30,225 269 449 -1536
2022-05-16 09:20:12 GMT 47.740906 10.131523 30,275 269 447 -1536
2022-05-16 09:20:09 GMT 47.741135 10.141273 30,200 269 447 -1536
2022-05-16 09:20:06 GMT 47.741501 10.158440 30,300 269 447 -1536
2022-05-16 09:20:03 GMT 47.741501 10.158440 30,325 269 448 -1472
2022-05-16 09:20:00 GMT 47.741730 10.168259 30,650 269 449 -1600
2022-05-16 09:19:57 GMT 47.742004 10.179314 30,550 269 448 -1472
2022-05-16 09:19:54 GMT 47.742462 10.198952 30,775 269 449 -1536
2022-05-16 09:19:51 GMT 47.742462 10.198952 30,775 269 449 -1536
2022-05-16 09:19:48 GMT 47.742580 10.204538 30,700 269 449 -1600
2022-05-16 09:19:45 GMT 47.742783 10.213715 30,875 269 449 -1536
2022-05-16 09:19:42 GMT 47.743057 10.226006 30,875 269 449 -1536
2022-05-16 09:19:38 GMT 47.743240 10.234589 30,950 269 448 -1472
2022-05-16 09:19:35 GMT 47.743694 10.256089 31,050 269 448 -1408
2022-05-16 09:19:32 GMT 47.743694 10.256089 31,125 269 448 -1536
2022-05-16 09:19:28 GMT 47.743881 10.265949 31,200 268 447 -1472
2022-05-16 09:19:25 GMT 47.744202 10.278809 31,325 268 447 -1472
2022-05-16 09:19:22 GMT 47.744476 10.288559 31,400 268 447 -1344
2022-05-16 09:19:19 GMT 47.744579 10.292851 31,400 268 447 -1344
2022-05-16 09:19:16 GMT 47.744999 10.303838 31,525 267 445 -1024
2022-05-16 09:19:13 GMT 47.745419 10.313627 31,550 267 446 -960
2022-05-16 09:19:10 GMT 47.745895 10.323990 31,575 266 445 -1024
2022-05-16 09:19:07 GMT 47.746719 10.338547 31,625 266 444 -1024
2022-05-16 09:19:04 GMT 47.746719 10.338547 31,700 265 445 -1024
2022-05-16 09:19:01 GMT 47.747498 10.350700 31,775 264 444 -1024
2022-05-16 09:18:58 GMT 47.748459 10.364021 31,825 264 445 -1024
2022-05-16 09:18:56 GMT 47.749512 10.377342 31,825 264 445 -1024
2022-05-16 09:18:53 GMT 47.749512 10.377342 31,875 263 444 -1024
2022-05-16 09:18:50 GMT 47.749924 10.382149 31,900 263 445 -960
2022-05-16 09:18:47 GMT 47.752029 10.404475 31,975 262 443 -448
2022-05-16 09:18:44 GMT 47.752029 10.404475 32,000 262 443 -320
2022-05-16 09:18:41 GMT 47.752487 10.408653 32,000 262 444 -192
2022-05-16 09:18:38 GMT 47.753494 10.418266 32,000 261 443 64
2022-05-16 09:18:34 GMT 47.754868 10.430283 32,000 261 444 0
2022-05-16 09:18:31 GMT 47.755844 10.439265 32,000 261 445 -64
2022-05-16 09:18:28 GMT 47.757019 10.449509 32,000 261 445 -64
2022-05-16 09:18:25 GMT 47.757893 10.457294 32,000 261 446 64
2022-05-16 09:18:22 GMT 47.758965 10.466942 32,000 261 446 64
2022-05-16 09:18:20 GMT 47.759617 10.472999 32,000 261 446 64
2022-05-16 09:18:17 GMT 47.760456 10.480253 32,000 261 446 64
2022-05-16 09:18:15 GMT 47.761105 10.486239 32,000 261 447 64
2022-05-16 09:18:12 GMT 47.762695 10.500114 32,000 261 447 -64
2022-05-16 09:18:09 GMT 47.763474 10.507393 32,000 261 447 -64
2022-05-16 09:18:06 GMT 47.764366 10.515254 32,000 261 447 0
2022-05-16 09:18:03 GMT 47.765488 10.525520 32,000 261 447 0
2022-05-16 09:18:00 GMT 47.766506 10.534691 32,000 261 447 -64
2022-05-16 09:17:57 GMT 47.767273 10.541313 32,000 261 447 0
2022-05-16 09:17:54 GMT 47.768276 10.550396 32,000 261 447 0
2022-05-16 09:17:51 GMT 47.769241 10.559303 32,000 261 447 64
2022-05-16 09:17:49 GMT 47.770203 10.568024 32,000 261 447 64
2022-05-16 09:17:46 GMT 47.771114 10.575890 32,000 261 447 64
2022-05-16 09:17:43 GMT 47.772079 10.584778 32,000 261 447 -64
2022-05-16 09:17:40 GMT 47.773117 10.593919 32,000 261 447 64
2022-05-16 09:17:36 GMT 47.774189 10.603779 32,000 261 447 0
2022-05-16 09:17:33 GMT 47.775631 10.616807 32,000 261 447 64
2022-05-16 09:17:30 GMT 47.776470 10.624272 32,000 261 447 64
2022-05-16 09:17:26 GMT 47.777958 10.637723 32,000 261 447 -64
2022-05-16 09:17:23 GMT 47.778980 10.647372 32,000 261 447 -64
2022-05-16 09:17:20 GMT 47.779861 10.655159 32,000 261 447 -64
2022-05-16 09:17:17 GMT 47.780891 10.664344 32,000 261 447 0
2022-05-16 09:17:12 GMT 47.782654 10.680634 32,000 261 446 -64
2022-05-16 09:17:09 GMT 47.783684 10.689768 32,000 261 446 -64
2022-05-16 09:17:06 GMT 47.785267 10.704275 32,000 261 445 -192
2022-05-16 09:17:04 GMT 47.786198 10.713219 32,000 261 445 -64
2022-05-16 09:17:00 GMT 47.786198 10.713219 32,025 261 445 -256
2022-05-16 09:16:57 GMT 47.787640 10.725966 32,025 261 444 -384
2022-05-16 09:16:54 GMT 47.788467 10.733711 32,050 261 444 -576
2022-05-16 09:16:51 GMT 47.789246 10.740784 32,100 261 443 -896
2022-05-16 09:16:48 GMT 47.790298 10.750397 32,100 261 442 -960
2022-05-16 09:16:45 GMT 47.792175 10.767357 32,200 261 442 -1024
2022-05-16 09:16:42 GMT 47.792175 10.767357 32,225 261 442 -1024
2022-05-16 09:16:39 GMT 47.794346 10.787166 32,275 261 442 -1024
2022-05-16 09:16:36 GMT 47.794346 10.787166 32,300 261 442 -1024
2022-05-16 09:16:32 GMT 47.795700 10.799492 32,375 261 442 -1088
2022-05-16 09:16:29 GMT 47.796394 10.806321 32,450 261 441 -1024
2022-05-16 09:16:26 GMT 47.797604 10.817096 32,475 261 441 -1024
2022-05-16 09:16:23 GMT 47.798538 10.825928 32,550 261 441 -1024
2022-05-16 09:16:20 GMT 47.799511 10.834844 32,600 261 441 -1024
2022-05-16 09:16:18 GMT 47.800095 10.840279 32,600 261 441 -1024
2022-05-16 09:16:15 GMT 47.801235 10.850619 32,650 261 441 -1024
2022-05-16 09:16:12 GMT 47.802120 10.858859 32,775 261 439 -960
2022-05-16 09:16:08 GMT 47.803284 10.869563 32,775 261 441 -1024
2022-05-16 09:16:05 GMT 47.804214 10.878085 32,825 261 441 -1024
2022-05-16 09:16:02 GMT 47.805313 10.888275 32,875 261 441 -1024
2022-05-16 09:15:59 GMT 47.806549 10.899948 32,950 261 440 -1024
2022-05-16 09:15:56 GMT 47.807564 10.909001 32,975 261 440 -1024
2022-05-16 09:15:52 GMT 47.808746 10.920204 33,800 261 438 -1024
2022-05-16 09:15:49 GMT 47.809708 10.929213 33,150 262 438 0
2022-05-16 09:15:46 GMT 47.811893 10.949566 33,250 261 439 -1088
2022-05-16 09:15:42 GMT 47.811893 10.949566 33,225 261 439 -1088
2022-05-16 09:15:39 GMT 47.813061 10.960200 33,275 261 438 -1024
2022-05-16 09:15:36 GMT 47.813736 10.966759 33,325 261 438 -1024
2022-05-16 09:15:30 GMT 47.815659 10.984474 33,400 261 438 -1024
2022-05-16 09:15:27 GMT 47.816643 10.993441 33,450 261 437 -960
2022-05-16 09:15:24 GMT 47.817387 11.000554 33,525 261 437 -960
2022-05-16 09:15:21 GMT 47.818359 11.009605 33,600 261 437 -960
2022-05-16 09:15:18 GMT 47.819576 11.020836 33,625 261 437 -1024
2022-05-16 09:15:15 GMT 47.820236 11.027321 33,675 261 438 -1024
2022-05-16 09:15:13 GMT 47.821068 11.034992 33,750 262 438 -192
2022-05-16 09:15:08 GMT 47.822460 11.048161 33,775 261 438 -1024
2022-05-16 09:15:05 GMT 47.823532 11.058220 33,850 261 438 -1024
2022-05-16 09:15:02 GMT 47.825455 11.076073 33,875 262 439 -1024
2022-05-16 09:14:59 GMT 47.825455 11.076073 33,950 262 439 -960
2022-05-16 09:14:57 GMT 47.826794 11.088656 34,000 262 438 64
2022-05-16 09:14:54 GMT 47.828110 11.101135 34,000 262 438 64
2022-05-16 09:14:51 GMT 47.828110 11.101135 34,000 262 438 -64
2022-05-16 09:14:48 GMT 47.828747 11.107530 34,000 262 438 64
2022-05-16 09:14:45 GMT 47.829941 11.118988 34,000 262 438 64
2022-05-16 09:14:42 GMT 47.830582 11.124893 34,000 262 438 128
2022-05-16 09:14:39 GMT 47.831818 11.136772 34,000 262 438 0
2022-05-16 09:14:36 GMT 47.832657 11.144503 34,000 262 438 -128
2022-05-16 09:14:33 GMT 47.834518 11.162391 34,000 262 438 -64
2022-05-16 09:14:30 GMT 47.834518 11.162391 34,000 262 438 -64
2022-05-16 09:14:27 GMT 47.835262 11.169504 34,000 262 438 64
2022-05-16 09:14:24 GMT 47.837402 11.189987 34,000 262 438 64
2022-05-16 09:14:21 GMT 47.837402 11.189987 34,000 262 438 -64
2022-05-16 09:14:18 GMT 47.838272 11.198433 34,000 262 438 -64
2022-05-16 09:14:15 GMT 47.839081 11.206125 34,000 262 438 -64
2022-05-16 09:14:12 GMT 47.839874 11.213951 34,000 262 438 -64
2022-05-16 09:14:09 GMT 47.840710 11.221619 34,000 262 438 0
2022-05-16 09:14:06 GMT 47.842060 11.234788 34,000 262 437 0
2022-05-16 09:14:03 GMT 47.842850 11.242516 34,000 262 437 64
2022-05-16 09:13:59 GMT 47.843994 11.253159 34,000 262 437 0
2022-05-16 09:13:56 GMT 47.844955 11.262634 34,000 262 437 0
2022-05-16 09:13:53 GMT 47.845779 11.270737 34,000 262 437 0
2022-05-16 09:13:49 GMT 47.847229 11.284649 34,000 262 438 -64
2022-05-16 09:13:45 GMT 47.848389 11.295868 34,000 262 437 0
2022-05-16 09:13:42 GMT 47.850533 11.316552 34,000 262 437 0
2022-05-16 09:13:39 GMT 47.851276 11.323806 34,000 262 437 0
2022-05-16 09:13:36 GMT 47.851276 11.323806 34,000 262 437 64
2022-05-16 09:13:33 GMT 47.851868 11.329102 34,000 262 437 0
2022-05-16 09:13:31 GMT 47.852463 11.335075 34,000 262 438 0
2022-05-16 09:13:28 GMT 47.854351 11.353455 34,000 262 438 0
2022-05-16 09:13:25 GMT 47.854351 11.353455 34,000 262 438 64
2022-05-16 09:13:22 GMT 47.855118 11.361099 34,000 262 438 64
2022-05-16 09:13:19 GMT 47.856304 11.372469 34,000 262 438 64
2022-05-16 09:13:16 GMT 47.857452 11.383759 34,000 262 438 0
2022-05-16 09:13:13 GMT 47.858353 11.392681 34,000 262 438 0
2022-05-16 09:13:09 GMT 47.859512 11.403946 34,000 262 438 64
2022-05-16 09:13:06 GMT 47.860245 11.411087 34,000 262 438 -64
2022-05-16 09:13:03 GMT 47.861053 11.418809 34,000 262 438 -64
2022-05-16 09:13:01 GMT 47.861801 11.426331 34,000 262 438 -64
2022-05-16 09:12:57 GMT 47.862869 11.436486 34,000 262 438 64
2022-05-16 09:12:54 GMT 47.863754 11.445007 34,000 262 438 0
2022-05-16 09:12:51 GMT 47.864868 11.456200 34,000 262 438 64
2022-05-16 09:12:48 GMT 47.865662 11.463811 34,000 262 437 0
2022-05-16 09:12:45 GMT 47.866837 11.475357 34,000 262 437 0
2022-05-16 09:12:42 GMT 47.868484 11.491905 34,000 262 437 0
2022-05-16 09:12:39 GMT 47.869667 11.503319 34,000 262 438 0
2022-05-16 09:12:36 GMT 47.869667 11.503319 34,000 262 438 -64
2022-05-16 09:12:33 GMT 47.870224 11.509024 34,000 262 438 0
2022-05-16 09:12:30 GMT 47.871109 11.517616 34,000 262 438 0
2022-05-16 09:12:26 GMT 47.872375 11.529808 34,000 262 438 64
2022-05-16 09:12:24 GMT 47.874207 11.548004 34,000 262 438 0
2022-05-16 09:12:21 GMT 47.874973 11.555504 34,000 262 438 -64
2022-05-16 09:12:18 GMT 47.874973 11.555504 34,000 262 438 64
2022-05-16 09:12:15 GMT 47.875992 11.565857 34,000 262 438 -64
2022-05-16 09:12:12 GMT 47.876587 11.571831 34,000 262 438 64
2022-05-16 09:12:09 GMT 47.877628 11.581984 34,000 262 438 64
2022-05-16 09:12:06 GMT 47.878510 11.590928 34,000 262 438 -64
2022-05-16 09:12:03 GMT 47.879395 11.599802 34,000 262 438 -64
2022-05-16 09:12:00 GMT 47.880386 11.609665 34,000 262 437 0
2022-05-16 09:11:57 GMT 47.881165 11.617081 34,000 262 436 64
2022-05-16 09:11:54 GMT 47.881851 11.624222 34,000 262 437 64
2022-05-16 09:11:52 GMT 47.882515 11.630789 34,000 262 437 64
2022-05-16 09:11:48 GMT 47.883724 11.642691 34,000 262 437 0
2022-05-16 09:11:45 GMT 47.885635 11.661706 34,000 262 437 0
2022-05-16 09:11:42 GMT 47.885635 11.661706 34,000 262 437 0
2022-05-16 09:11:39 GMT 47.887665 11.682312 34,000 262 438 -64
2022-05-16 09:11:36 GMT 47.887665 11.682312 34,000 262 438 -64
2022-05-16 09:11:33 GMT 47.888168 11.687119 34,000 262 438 -64
2022-05-16 09:11:30 GMT 47.888992 11.695427 34,000 262 438 64
2022-05-16 09:11:27 GMT 47.890244 11.708186 34,000 262 438 64
2022-05-16 09:11:24 GMT 47.891693 11.722755 34,000 262 438 0
2022-05-16 09:11:19 GMT 47.892616 11.731708 34,000 262 438 0
2022-05-16 09:11:15 GMT 47.893688 11.742695 34,000 262 438 64
2022-05-16 09:11:12 GMT 47.894756 11.753470 34,000 262 438 64
2022-05-16 09:11:09 GMT 47.895172 11.757637 34,000 262 438 64
2022-05-16 09:11:06 GMT 47.896481 11.771005 34,000 262 438 64
2022-05-16 09:11:03 GMT 47.896957 11.775490 34,000 262 438 64
2022-05-16 09:11:01 GMT 47.897690 11.782978 34,000 262 438 64
2022-05-16 09:10:58 GMT 47.898621 11.792485 34,000 262 438 0
2022-05-16 09:10:55 GMT 47.900391 11.809891 34,000 262 437 0
2022-05-16 09:10:52 GMT 47.900391 11.809891 34,000 262 438 -64
2022-05-16 09:10:49 GMT 47.901417 11.820162 34,000 262 438 0
2022-05-16 09:10:46 GMT 47.902176 11.827675 34,000 262 436 0
2022-05-16 09:10:43 GMT 47.904022 11.846431 34,000 262 437 0
2022-05-16 09:10:40 GMT 47.904022 11.846431 34,000 262 437 0
2022-05-16 09:10:37 GMT 47.905186 11.858333 34,000 262 437 0
2022-05-16 09:10:34 GMT 47.905792 11.864248 34,000 262 437 -64
2022-05-16 09:10:32 GMT 47.906395 11.870235 34,000 262 437 0
2022-05-16 09:10:29 GMT 47.907166 11.877937 34,000 262 437 0
2022-05-16 09:10:26 GMT 47.908352 11.890165 34,000 262 435 0
2022-05-16 09:10:22 GMT 47.909363 11.900185 34,000 262 436 0
2022-05-16 09:10:18 GMT 47.910400 11.910588 34,000 262 437 -64
2022-05-16 09:10:15 GMT 47.912121 11.928194 34,000 262 436 -64
2022-05-16 09:10:12 GMT 47.912121 11.928194 34,000 262 436 -64
2022-05-16 09:10:10 GMT 47.912796 11.934929 34,000 262 436 0
2022-05-16 09:10:07 GMT 47.913517 11.942420 34,000 262 437 0
2022-05-16 09:10:04 GMT 47.914673 11.953949 34,000 262 437 -64
2022-05-16 09:10:01 GMT 47.915359 11.961090 34,000 262 437 0
2022-05-16 09:09:58 GMT 47.916412 11.971664 34,000 262 437 0
2022-05-16 09:09:54 GMT 47.917290 11.980732 34,000 262 437 0
2022-05-16 09:09:51 GMT 47.918312 11.991155 34,000 262 437 0
2022-05-16 09:09:47 GMT 47.919525 12.003338 34,000 262 437 64
2022-05-16 09:09:43 GMT 47.921757 12.025945 34,000 262 437 -64
2022-05-16 09:09:40 GMT 47.921757 12.025945 34,000 262 436 0
2022-05-16 09:09:37 GMT 47.922501 12.033669 34,000 262 436 0
2022-05-16 09:09:34 GMT 47.923157 12.040241 34,000 262 436 0
2022-05-16 09:09:31 GMT 47.924469 12.053925 34,000 262 436 0
2022-05-16 09:09:28 GMT 47.925018 12.059326 34,000 262 436 0
2022-05-16 09:09:25 GMT 47.926182 12.071158 34,000 262 436 -64
2022-05-16 09:09:22 GMT 47.926880 12.078271 34,000 262 435 -64
2022-05-16 09:09:20 GMT 47.927437 12.084257 34,000 262 435 0
2022-05-16 09:09:17 GMT 47.928314 12.093132 34,000 262 435 0
2022-05-16 09:09:14 GMT 47.929001 12.100204 34,000 262 435 0
2022-05-16 09:09:11 GMT 47.929859 12.109117 34,000 262 435 64
2022-05-16 09:09:08 GMT 47.931198 12.122726 34,000 262 434 0
2022-05-16 09:09:05 GMT 47.931747 12.128632 34,000 262 434 0
2022-05-16 09:09:02 GMT 47.932800 12.139275 34,000 262 434 64
2022-05-16 09:08:59 GMT 47.933487 12.146347 34,000 262 434 0
2022-05-16 09:08:56 GMT 47.934174 12.153419 34,000 262 434 -64
2022-05-16 09:08:53 GMT 47.935318 12.165230 34,000 262 434 -64
2022-05-16 09:08:50 GMT 47.936005 12.172371 34,000 262 434 -64
2022-05-16 09:08:48 GMT 47.936691 12.179443 34,000 262 434 0
2022-05-16 09:08:45 GMT 47.937332 12.186516 34,000 262 434 0
2022-05-16 09:08:40 GMT 47.938705 12.200729 34,000 262 434 64
2022-05-16 09:08:38 GMT 47.939449 12.208416 34,000 262 434 64
2022-05-16 09:08:36 GMT 47.939865 12.213135 34,000 262 434 -64
2022-05-16 09:08:33 GMT 47.940800 12.222572 34,000 263 434 0
2022-05-16 09:08:30 GMT 47.941448 12.229685 34,000 262 434 64
2022-05-16 09:08:28 GMT 47.942146 12.236798 34,000 262 434 64
2022-05-16 09:08:25 GMT 47.942871 12.244469 34,000 262 434 64
2022-05-16 09:08:20 GMT 47.944336 12.259781 34,000 263 434 0
2022-05-16 09:08:18 GMT 47.944885 12.265686 34,000 263 433 0
2022-05-16 09:08:14 GMT 47.946384 12.281658 34,000 263 433 0
2022-05-16 09:08:11 GMT 47.946762 12.285805 34,000 263 433 0
2022-05-16 09:08:08 GMT 47.947594 12.294617 34,000 263 433 64
2022-05-16 09:08:05 GMT 47.948547 12.304688 34,000 263 433 0
2022-05-16 09:08:02 GMT 47.949364 12.313561 34,000 263 434 -64
2022-05-16 09:07:59 GMT 47.950424 12.324738 34,000 263 434 -64
2022-05-16 09:07:54 GMT 47.951614 12.337784 34,000 263 434 64
2022-05-16 09:07:51 GMT 47.952530 12.347224 34,000 263 434 64
2022-05-16 09:07:48 GMT 47.954018 12.363211 34,000 263 435 0
2022-05-16 09:07:45 GMT 47.954018 12.363211 34,000 263 434 0
2022-05-16 09:07:42 GMT 47.954819 12.372047 34,000 263 434 -64
2022-05-16 09:07:39 GMT 47.955688 12.381523 34,000 263 435 0
2022-05-16 09:07:37 GMT 47.956604 12.390999 34,000 263 435 -64
2022-05-16 09:07:34 GMT 47.957474 12.400475 34,000 263 435 -64
2022-05-16 09:07:31 GMT 47.958115 12.407616 34,000 263 435 0
2022-05-16 09:07:28 GMT 47.958801 12.414688 34,000 263 435 -64
2022-05-16 09:07:25 GMT 47.960724 12.435467 34,000 263 435 64
2022-05-16 09:07:21 GMT 47.960724 12.435467 34,000 263 435 64
2022-05-16 09:07:18 GMT 47.961319 12.441948 34,000 263 435 0
2022-05-16 09:07:15 GMT 47.962353 12.453214 34,000 263 435 -64
2022-05-16 09:07:12 GMT 47.963974 12.470444 34,000 263 435 0
2022-05-16 09:07:09 GMT 47.963974 12.470444 34,000 263 435 -128
2022-05-16 09:07:05 GMT 47.964912 12.480539 34,000 263 435 64
2022-05-16 09:07:02 GMT 47.966076 12.493568 34,000 263 434 64
2022-05-16 09:06:58 GMT 47.966904 12.502441 34,000 263 434 64
2022-05-16 09:06:56 GMT 47.967407 12.508415 34,000 262 434 0
2022-05-16 09:06:53 GMT 47.968311 12.518428 34,000 262 434 0
2022-05-16 09:06:49 GMT 47.970428 12.537941 34,000 260 434 0
2022-05-16 09:06:46 GMT 47.971802 12.548515 34,000 260 434 0
2022-05-16 09:06:42 GMT 47.971802 12.548515 34,000 258 435 -64
2022-05-16 09:06:39 GMT 47.975281 12.570625 34,000 256 434 64
2022-05-16 09:06:35 GMT 47.975281 12.570625 34,000 253 434 64
2022-05-16 09:06:32 GMT 47.977432 12.582161 34,000 254 434 64
2022-05-16 09:06:28 GMT 47.979080 12.590195 34,000 250 434 64
2022-05-16 09:06:26 GMT 47.980415 12.596389 34,000 250 434 64
2022-05-16 09:06:23 GMT 47.982651 12.606056 34,000 250 434 64
2022-05-16 09:06:19 GMT 47.984741 12.614488 34,000 249 434 0
2022-05-16 09:06:16 GMT 47.987549 12.625008 34,000 245 435 64
2022-05-16 09:06:13 GMT 47.989426 12.631668 34,000 247 435 -64
2022-05-16 09:06:10 GMT 47.992565 12.642024 34,000 245 436 64
2022-05-16 09:06:07 GMT 47.994614 12.648503 34,000 245 435 64
2022-05-16 09:06:04 GMT 47.998306 12.659821 34,000 245 435 0
2022-05-16 09:06:01 GMT 48.000732 12.667374 34,000 245 435 0
2022-05-16 09:05:58 GMT 48.003365 12.675476 34,000 245 435 0
2022-05-16 09:05:56 GMT 48.005135 12.680899 34,000 245 435 0
2022-05-16 09:05:53 GMT 48.007736 12.688934 34,000 245 435 64
2022-05-16 09:05:50 GMT 48.009521 12.694359 34,000 245 435 64
2022-05-16 09:05:47 GMT 48.012314 12.702942 34,000 245 435 0
2022-05-16 09:05:44 GMT 48.015282 12.712168 34,000 245 434 0
2022-05-16 09:05:41 GMT 48.017002 12.717520 34,000 245 434 -64
2022-05-16 09:05:37 GMT 48.023483 12.737480 34,000 245 434 64
2022-05-16 09:05:35 GMT 48.023483 12.737480 34,000 245 434 0
2022-05-16 09:05:30 GMT 48.027649 12.750389 34,000 245 434 -64
2022-05-16 09:05:27 GMT 48.029945 12.757381 34,000 245 434 0
2022-05-16 09:05:25 GMT 48.031342 12.761747 34,000 245 435 64
2022-05-16 09:05:22 GMT 48.033966 12.769821 34,000 245 435 0
2022-05-16 09:05:19 GMT 48.037445 12.780602 34,000 245 435 -64
2022-05-16 09:05:16 GMT 48.040047 12.788720 34,000 245 435 0
2022-05-16 09:05:13 GMT 48.041977 12.794609 34,000 245 435 0
2022-05-16 09:05:10 GMT 48.044933 12.803791 34,000 244 435 64
2022-05-16 09:05:07 GMT 48.047562 12.811913 34,000 245 435 0
2022-05-16 09:05:04 GMT 48.049824 12.818932 34,000 245 436 0
2022-05-16 09:05:01 GMT 48.055573 12.836769 34,000 245 436 -64
2022-05-16 09:04:58 GMT 48.055573 12.836769 34,000 245 436 -64
2022-05-16 09:04:55 GMT 48.057877 12.843863 34,000 245 436 0
2022-05-16 09:04:52 GMT 48.060299 12.851398 34,000 245 436 64
2022-05-16 09:04:48 GMT 48.063789 12.862244 34,000 245 436 0
2022-05-16 09:04:45 GMT 48.066422 12.870415 34,000 245 436 0
2022-05-16 09:04:42 GMT 48.072372 12.888817 34,000 245 436 64
2022-05-16 09:04:39 GMT 48.072372 12.888817 34,000 245 436 64
2022-05-16 09:04:36 GMT 48.077801 12.905696 34,000 245 436 0
2022-05-16 09:04:32 GMT 48.080750 12.914909 34,000 245 437 -64
2022-05-16 09:04:29 GMT 48.083221 12.922531 34,000 245 438 0
2022-05-16 09:04:26 GMT 48.083221 12.922531 34,000 245 438 0
2022-05-16 09:04:23 GMT 48.088120 12.937775 34,000 245 438 0
2022-05-16 09:04:20 GMT 48.088120 12.937775 34,000 245 438 0
2022-05-16 09:04:17 GMT 48.090744 12.945909 34,000 245 437 0
2022-05-16 09:04:14 GMT 48.093208 12.953585 34,000 245 437 0
2022-05-16 09:04:11 GMT 48.096863 12.964966 34,000 245 437 0
2022-05-16 09:04:07 GMT 48.099495 12.973163 34,000 245 437 64
2022-05-16 09:04:04 GMT 48.102081 12.981308 34,000 245 437 64
2022-05-16 09:04:00 GMT 48.105606 12.992226 34,000 245 437 0
2022-05-16 09:03:57 GMT 48.110458 13.007469 34,000 245 437 -64
2022-05-16 09:03:54 GMT 48.110458 13.007469 34,000 245 437 -64
2022-05-16 09:03:52 GMT 48.112564 13.013992 34,000 245 437 0
2022-05-16 09:03:49 GMT 48.116043 13.024910 34,000 245 437 64
2022-05-16 09:03:46 GMT 48.118149 13.031433 34,000 245 437 0
2022-05-16 09:03:43 GMT 48.120255 13.037956 34,000 245 437 0
2022-05-16 09:03:40 GMT 48.123367 13.047775 34,000 245 437 0
2022-05-16 09:03:37 GMT 48.125839 13.055397 34,000 245 437 -64
2022-05-16 09:03:34 GMT 48.128632 13.064117 34,000 245 437 0
2022-05-16 09:03:31 GMT 48.131744 13.073936 34,000 245 437 64
2022-05-16 09:03:28 GMT 48.133850 13.080460 34,000 245 437 64
2022-05-16 09:03:25 GMT 48.136456 13.088661 34,000 245 437 0
2022-05-16 09:03:22 GMT 48.139069 13.096802 34,000 245 437 0
2022-05-16 09:03:19 GMT 48.141174 13.103394 34,000 245 437 0
2022-05-16 09:03:17 GMT 48.143440 13.110422 34,000 245 437 0
2022-05-16 09:03:14 GMT 48.146187 13.119155 34,000 245 437 0
2022-05-16 09:03:11 GMT 48.147957 13.124648 34,000 245 437 0
2022-05-16 09:03:08 GMT 48.151772 13.136620 34,000 245 437 0
2022-05-16 09:03:05 GMT 48.154358 13.144798 34,000 245 437 0
2022-05-16 09:03:02 GMT 48.156986 13.152959 34,000 245 436 64
2022-05-16 09:02:59 GMT 48.158710 13.158382 34,000 245 436 64
2022-05-16 09:02:56 GMT 48.162003 13.168734 34,000 245 436 0
2022-05-16 09:02:53 GMT 48.167370 13.185618 34,000 245 436 0
2022-05-16 09:02:50 GMT 48.167370 13.185618 34,000 245 436 -64
2022-05-16 09:02:47 GMT 48.169968 13.193805 34,000 245 436 -64
2022-05-16 09:02:43 GMT 48.172581 13.201952 34,000 245 436 -64
2022-05-16 09:02:40 GMT 48.175186 13.210144 34,000 245 437 0
2022-05-16 09:02:37 GMT 48.180866 13.228117 34,000 245 437 0
2022-05-16 09:02:34 GMT 48.180866 13.228117 34,000 245 437 0
2022-05-16 09:02:32 GMT 48.182964 13.234622 34,000 245 437 0
2022-05-16 09:02:29 GMT 48.185383 13.242284 34,000 245 437 64
2022-05-16 09:02:26 GMT 48.187637 13.249371 34,000 245 437 64
2022-05-16 09:02:23 GMT 48.189697 13.255920 34,000 245 437 0
2022-05-16 09:02:21 GMT 48.191948 13.263028 34,000 245 437 0
2022-05-16 09:02:17 GMT 48.195236 13.273386 34,000 245 437 0
2022-05-16 09:02:14 GMT 48.201141 13.291978 34,000 245 437 0
2022-05-16 09:02:11 GMT 48.201141 13.291978 34,000 245 437 64
2022-05-16 09:02:08 GMT 48.203724 13.300179 34,000 245 437 0
2022-05-16 09:02:05 GMT 48.206146 13.307840 34,000 245 437 0
2022-05-16 09:02:02 GMT 48.208382 13.314924 34,000 245 437 64
2022-05-16 09:01:59 GMT 48.211853 13.325782 34,000 245 436 -64
2022-05-16 09:01:56 GMT 48.213913 13.332332 34,000 245 436 -64
2022-05-16 09:01:53 GMT 48.216667 13.341089 34,000 245 436 0
2022-05-16 09:01:49 GMT 48.219971 13.351424 34,000 245 435 64
2022-05-16 09:01:46 GMT 48.221695 13.356918 34,000 245 435 64
2022-05-16 09:01:43 GMT 48.224766 13.366675 34,000 245 435 0
2022-05-16 09:01:40 GMT 48.226814 13.373180 34,000 245 435 0
2022-05-16 09:01:37 GMT 48.229561 13.381926 34,000 245 435 -64
2022-05-16 09:01:35 GMT 48.230957 13.386263 34,000 245 435 -64
2022-05-16 09:01:32 GMT 48.234238 13.396630 34,000 245 435 -64
2022-05-16 09:01:29 GMT 48.236778 13.404838 34,000 245 434 0
2022-05-16 09:01:26 GMT 48.239365 13.412969 34,000 245 434 64
2022-05-16 09:01:23 GMT 48.244690 13.429847 34,000 245 433 64
2022-05-16 09:01:20 GMT 48.247066 13.437436 34,000 245 434 -64
2022-05-16 09:01:17 GMT 48.249664 13.445575 34,000 245 434 0
2022-05-16 09:01:14 GMT 48.249664 13.445575 34,000 245 435 64
2022-05-16 09:01:11 GMT 48.251862 13.452687 34,000 245 435 64
2022-05-16 09:01:08 GMT 48.255112 13.463041 34,000 245 435 0
2022-05-16 09:01:05 GMT 48.257538 13.470647 34,000 245 435 -64
2022-05-16 09:01:02 GMT 48.260612 13.480441 34,000 245 435 0
2022-05-16 09:00:59 GMT 48.262150 13.485356 34,000 245 435 0
2022-05-16 09:00:56 GMT 48.267315 13.501691 34,000 245 435 0
2022-05-16 09:00:53 GMT 48.267315 13.501691 34,000 245 435 0
2022-05-16 09:00:51 GMT 48.269531 13.508747 34,000 245 435 0
2022-05-16 09:00:49 GMT 48.270905 13.513113 34,000 245 435 64
2022-05-16 09:00:46 GMT 48.273460 13.521279 34,000 245 434 0
2022-05-16 09:00:44 GMT 48.276031 13.529452 34,000 245 434 0
2022-05-16 09:00:41 GMT 48.277557 13.534361 34,000 245 434 64
2022-05-16 09:00:38 GMT 48.282352 13.549612 34,000 245 434 64
2022-05-16 09:00:35 GMT 48.282352 13.549612 34,000 245 434 0
2022-05-16 09:00:31 GMT 48.286972 13.564312 34,000 245 435 0
2022-05-16 09:00:28 GMT 48.288498 13.569199 34,000 245 435 0
2022-05-16 09:00:25 GMT 48.291897 13.580113 34,000 245 435 0
2022-05-16 09:00:21 GMT 48.294800 13.589384 34,000 245 435 -64
2022-05-16 09:00:18 GMT 48.297016 13.596448 34,000 245 434 -64
2022-05-16 09:00:15 GMT 48.299763 13.605194 34,000 245 434 -64
2022-05-16 09:00:12 GMT 48.302464 13.613868 34,000 245 434 0
2022-05-16 09:00:09 GMT 48.307583 13.630275 34,000 245 434 64
2022-05-16 09:00:06 GMT 48.307583 13.630275 34,000 245 434 0
2022-05-16 09:00:02 GMT 48.310822 13.640583 34,000 245 434 64
2022-05-16 09:00:00 GMT 48.312702 13.646610 34,000 245 434 0
2022-05-16 08:59:57 GMT 48.317642 13.662415 34,000 245 434 -64
2022-05-16 08:59:54 GMT 48.317642 13.662415 34,000 245 433 -64
2022-05-16 08:59:51 GMT 48.320198 13.670606 34,000 245 433 0
2022-05-16 08:59:48 GMT 48.322575 13.678195 34,000 245 434 0
2022-05-16 08:59:45 GMT 48.325645 13.688025 34,000 245 434 0
2022-05-16 08:59:43 GMT 48.330906 13.704938 34,000 245 434 0
2022-05-16 08:59:40 GMT 48.330906 13.704938 34,000 245 434 -64
2022-05-16 08:59:37 GMT 48.332115 13.708769 34,000 246 435 -64
2022-05-16 08:59:34 GMT 48.335140 13.718599 34,000 246 435 -64
2022-05-16 08:59:32 GMT 48.335999 13.721290 34,000 246 438 -64
2022-05-16 08:59:29 GMT 48.339066 13.731150 34,000 246 437 64
2022-05-16 08:59:25 GMT 48.342499 13.742136 34,000 245 436 -64
2022-05-16 08:59:20 GMT 48.347107 13.756907 34,000 245 437 -64
2022-05-16 08:59:17 GMT 48.349319 13.764038 34,000 245 437 64
2022-05-16 08:59:14 GMT 48.351700 13.771785 34,000 246 437 64
2022-05-16 08:59:10 GMT 48.355499 13.783828 34,000 246 438 -64
2022-05-16 08:59:07 GMT 48.357719 13.791022 34,000 246 438 0
2022-05-16 08:59:04 GMT 48.360626 13.800377 34,000 246 438 -64
2022-05-16 08:59:02 GMT 48.362000 13.804814 34,000 246 438 -64
2022-05-16 08:58:59 GMT 48.365215 13.815308 34,000 245 439 0
2022-05-16 08:58:55 GMT 48.368820 13.826857 34,000 245 439 0
2022-05-16 08:58:52 GMT 48.370560 13.832421 34,000 245 439 64
2022-05-16 08:58:48 GMT 48.377922 13.856145 34,000 246 438 64
2022-05-16 08:58:44 GMT 48.377922 13.856145 34,000 246 438 0
2022-05-16 08:58:42 GMT 48.379440 13.861084 34,000 246 438 0
2022-05-16 08:58:38 GMT 48.383369 13.873781 34,000 246 438 -64
2022-05-16 08:58:35 GMT 48.386116 13.882599 34,000 246 438 0
2022-05-16 08:58:32 GMT 48.387634 13.887564 34,000 246 438 0
2022-05-16 08:58:30 GMT 48.389374 13.893127 34,000 246 438 0
2022-05-16 08:58:27 GMT 48.391937 13.901391 34,000 246 438 0
2022-05-16 08:58:24 GMT 48.395142 13.911861 34,000 246 438 0
2022-05-16 08:58:21 GMT 48.397888 13.920664 34,000 246 438 0
2022-05-16 08:58:18 GMT 48.399757 13.926761 34,000 246 438 0
2022-05-16 08:58:15 GMT 48.402328 13.935030 34,000 246 438 0
2022-05-16 08:58:12 GMT 48.408096 13.953764 34,000 246 438 0
2022-05-16 08:58:09 GMT 48.408096 13.953764 34,000 246 438 0
2022-05-16 08:58:06 GMT 48.410648 13.962105 34,000 246 438 -64
2022-05-16 08:58:02 GMT 48.413395 13.970923 34,000 246 438 -64
2022-05-16 08:58:00 GMT 48.415073 13.976416 34,000 246 438 0
2022-05-16 08:57:57 GMT 48.418007 13.985813 34,000 246 438 64
2022-05-16 08:57:54 GMT 48.420891 13.995209 34,000 246 438 64
2022-05-16 08:57:51 GMT 48.423431 14.003484 34,000 246 438 0
2022-05-16 08:57:47 GMT 48.428879 14.021160 34,000 246 438 64
2022-05-16 08:57:44 GMT 48.428879 14.021160 34,000 246 438 0
2022-05-16 08:57:41 GMT 48.431412 14.029469 34,000 246 438 -64
2022-05-16 08:57:38 GMT 48.434326 14.038837 34,000 246 439 -64
2022-05-16 08:57:34 GMT 48.437027 14.047711 34,000 246 439 -64
2022-05-16 08:57:31 GMT 48.440414 14.058767 34,000 246 438 0
2022-05-16 08:57:28 GMT 48.442959 14.067054 34,000 246 438 64
2022-05-16 08:57:25 GMT 48.444679 14.072619 34,000 246 438 0
2022-05-16 08:57:21 GMT 48.447922 14.083135 34,000 246 438 0
2022-05-16 08:57:19 GMT 48.449753 14.089171 34,000 246 438 -64
2022-05-16 08:57:15 GMT 48.454178 14.103554 34,000 246 438 0
2022-05-16 08:57:11 GMT 48.457397 14.114051 34,000 246 438 64
2022-05-16 08:57:07 GMT 48.460785 14.125108 34,000 246 438 64
2022-05-16 08:57:04 GMT 48.462322 14.130080 34,000 246 438 64
2022-05-16 08:57:01 GMT 48.465179 14.139475 34,000 246 438 64
2022-05-16 08:56:58 GMT 48.467072 14.145620 34,000 246 438 64
2022-05-16 08:56:55 GMT 48.473122 14.165425 34,000 246 438 -64
2022-05-16 08:56:52 GMT 48.473122 14.165425 34,000 246 438 -64
2022-05-16 08:56:49 GMT 48.476028 14.174828 34,000 246 437 0
2022-05-16 08:56:46 GMT 48.478043 14.181448 34,000 246 437 64
2022-05-16 08:56:42 GMT 48.481594 14.193035 34,000 246 436 64
2022-05-16 08:56:39 GMT 48.484295 14.201853 34,000 246 436 0
2022-05-16 08:56:36 GMT 48.486996 14.210671 34,000 246 436 -64
2022-05-16 08:56:33 GMT 48.488300 14.215152 34,000 246 436 0
2022-05-16 08:56:30 GMT 48.491501 14.225605 34,000 246 436 64
2022-05-16 08:56:26 GMT 48.494888 14.236661 34,000 246 435 -64
2022-05-16 08:56:23 GMT 48.497910 14.246521 34,000 246 435 0
2022-05-16 08:56:20 GMT 48.501617 14.258634 34,000 246 435 0
2022-05-16 08:56:18 GMT 48.501617 14.258634 34,000 246 435 64
2022-05-16 08:56:15 GMT 48.503941 14.266398 34,000 246 435 64
2022-05-16 08:56:12 GMT 48.506653 14.275184 34,000 246 435 64
2022-05-16 08:56:10 GMT 48.508827 14.282299 34,000 246 435 -64
2022-05-16 08:56:06 GMT 48.511322 14.290537 34,000 246 435 -64
2022-05-16 08:56:03 GMT 48.513855 14.298851 34,000 246 435 -64
2022-05-16 08:56:00 GMT 48.516678 14.308213 34,000 246 435 64
2022-05-16 08:55:58 GMT 48.519379 14.317017 34,000 246 434 0
2022-05-16 08:55:55 GMT 48.521538 14.324148 34,000 246 434 64
2022-05-16 08:55:52 GMT 48.525539 14.337303 34,000 246 434 -64
2022-05-16 08:55:50 GMT 48.525539 14.337303 34,000 246 434 -64
2022-05-16 08:55:47 GMT 48.528240 14.346121 34,000 246 434 0
2022-05-16 08:55:44 GMT 48.529869 14.351614 34,000 246 434 -64
2022-05-16 08:55:41 GMT 48.531872 14.358191 34,000 246 434 -64
2022-05-16 08:55:39 GMT 48.535503 14.370045 34,000 246 434 64
2022-05-16 08:55:37 GMT 48.535503 14.370045 34,000 246 434 0
2022-05-16 08:55:34 GMT 48.539062 14.381737 34,000 246 434 64
2022-05-16 08:55:31 GMT 48.540253 14.385657 34,000 246 434 64
2022-05-16 08:55:29 GMT 48.542358 14.392653 34,000 246 433 64
2022-05-16 08:55:26 GMT 48.545231 14.402137 34,000 246 434 -64
2022-05-16 08:55:23 GMT 48.547348 14.409203 34,000 246 434 64
2022-05-16 08:55:20 GMT 48.549728 14.416950 34,000 246 434 0
2022-05-16 08:55:17 GMT 48.552383 14.425753 34,000 246 434 -64
2022-05-16 08:55:14 GMT 48.555382 14.435601 34,000 246 434 0
2022-05-16 08:55:11 GMT 48.557373 14.442233 34,000 246 434 -64
2022-05-16 08:55:09 GMT 48.559662 14.449909 34,000 246 433 -64
2022-05-16 08:55:05 GMT 48.563004 14.460895 34,000 246 433 0
2022-05-16 08:55:02 GMT 48.564651 14.466388 34,000 246 433 64
2022-05-16 08:54:59 GMT 48.566986 14.474065 34,000 246 432 -64
2022-05-16 08:54:57 GMT 48.569439 14.482221 34,000 246 433 64
2022-05-16 08:54:54 GMT 48.571442 14.488871 34,000 246 432 -64
2022-05-16 08:54:51 GMT 48.574097 14.497616 34,000 246 432 0
2022-05-16 08:54:47 GMT 48.577515 14.508996 34,000 246 432 -64
2022-05-16 08:54:44 GMT 48.579403 14.515252 34,000 246 432 0
2022-05-16 08:54:41 GMT 48.582825 14.526602 34,000 246 432 -64
2022-05-16 08:54:37 GMT 48.587814 14.543222 34,000 246 432 -64
2022-05-16 08:54:34 GMT 48.587814 14.543222 34,000 246 432 -64
2022-05-16 08:54:31 GMT 48.593719 14.562800 34,000 246 432 64
2022-05-16 08:54:28 GMT 48.593719 14.562800 34,000 246 431 -64
2022-05-16 08:54:25 GMT 48.597836 14.576472 34,000 246 431 0
2022-05-16 08:54:22 GMT 48.597836 14.576472 34,000 246 431 0
2022-05-16 08:54:19 GMT 48.603012 14.593647 34,000 246 431 64
2022-05-16 08:54:16 GMT 48.603012 14.593647 34,000 246 434 -64
2022-05-16 08:54:13 GMT 48.607315 14.607873 34,000 246 432 0
2022-05-16 08:54:10 GMT 48.607315 14.607873 34,000 246 432 0
2022-05-16 08:54:08 GMT 48.611755 14.622730 34,000 246 432 -64
2022-05-16 08:54:06 GMT 48.611755 14.622730 34,000 246 433 -64
2022-05-16 08:54:02 GMT 48.617203 14.640902 34,000 246 433 64
2022-05-16 08:53:59 GMT 48.617203 14.640902 34,000 246 434 -64
2022-05-16 08:53:56 GMT 48.619343 14.648100 34,000 246 435 -64
2022-05-16 08:53:53 GMT 48.621998 14.656846 34,000 246 435 64
2022-05-16 08:53:50 GMT 48.624649 14.665736 34,000 246 436 64
2022-05-16 08:53:47 GMT 48.627457 14.675129 34,000 246 436 64
2022-05-16 08:53:43 GMT 48.630478 14.685129 34,000 246 436 0
2022-05-16 08:53:40 GMT 48.632610 14.692407 34,000 246 436 -64
2022-05-16 08:53:37 GMT 48.634781 14.699566 34,000 246 436 -64
2022-05-16 08:53:35 GMT 48.637115 14.707383 34,000 246 436 64
2022-05-16 08:53:32 GMT 48.639130 14.714003 34,000 246 436 64
2022-05-16 08:53:29 GMT 48.642059 14.723792 34,000 246 437 64
2022-05-16 08:53:26 GMT 48.645721 14.736046 34,000 246 437 0
2022-05-16 08:53:23 GMT 48.647228 14.741123 34,000 246 437 0
2022-05-16 08:53:20 GMT 48.649429 14.748512 34,000 246 437 -64
2022-05-16 08:53:16 GMT 48.653320 14.761611 34,000 246 437 -64
2022-05-16 08:53:13 GMT 48.654907 14.766854 34,000 246 437 0
2022-05-16 08:53:10 GMT 48.657349 14.775132 34,000 246 437 64
2022-05-16 08:53:07 GMT 48.659470 14.782177 34,000 246 437 64
2022-05-16 08:53:05 GMT 48.661518 14.788971 34,000 246 437 0
2022-05-16 08:53:02 GMT 48.664032 14.797457 34,000 246 437 64
2022-05-16 08:52:59 GMT 48.666000 14.804077 34,000 246 438 -64
2022-05-16 08:52:57 GMT 48.668457 14.812317 34,000 246 437 0
2022-05-16 08:52:53 GMT 48.671677 14.823022 34,000 246 437 64
2022-05-16 08:52:50 GMT 48.674286 14.831754 34,000 246 438 0
2022-05-16 08:52:47 GMT 48.680603 14.853093 34,000 246 438 -64
2022-05-16 08:52:43 GMT 48.680603 14.853093 34,000 246 438 0
2022-05-16 08:52:40 GMT 48.682701 14.860093 34,000 246 438 0
2022-05-16 08:52:37 GMT 48.686752 14.873754 34,000 246 437 0
2022-05-16 08:52:35 GMT 48.686752 14.873754 34,000 246 437 0
2022-05-16 08:52:32 GMT 48.688522 14.879643 34,000 246 438 64
2022-05-16 08:52:29 GMT 48.691544 14.889785 34,000 246 438 0
2022-05-16 08:52:26 GMT 48.693558 14.896616 34,000 246 438 0
2022-05-16 08:52:23 GMT 48.696854 14.907743 34,000 246 438 64
2022-05-16 08:52:20 GMT 48.699322 14.916109 34,000 246 438 0
2022-05-16 08:52:16 GMT 48.702251 14.926011 34,000 246 438 -64
2022-05-16 08:52:13 GMT 48.707561 14.943936 34,000 246 438 0
2022-05-16 08:52:10 GMT 48.707561 14.943936 34,000 246 438 0
2022-05-16 08:52:05 GMT 48.712818 14.961644 34,000 246 438 0
2022-05-16 08:52:02 GMT 48.716869 14.975233 34,000 246 438 0
2022-05-16 08:51:59 GMT 48.716869 14.975233 34,000 246 438 -64
2022-05-16 08:51:55 GMT 48.719604 14.984577 34,000 246 438 0
2022-05-16 08:51:52 GMT 48.722305 14.993662 34,000 246 438 0
2022-05-16 08:51:49 GMT 48.724915 15.002465 34,000 246 438 64
2022-05-16 08:51:45 GMT 48.727764 15.012095 34,000 246 438 0
2022-05-16 08:51:43 GMT 48.732372 15.027779 34,000 246 438 0
2022-05-16 08:51:40 GMT 48.732372 15.027779 34,000 246 438 0
2022-05-16 08:51:38 GMT 48.733521 15.031621 34,000 246 438 0
2022-05-16 08:51:35 GMT 48.736328 15.041223 34,000 246 438 64
2022-05-16 08:51:32 GMT 48.739960 15.053366 34,000 246 439 64
2022-05-16 08:51:29 GMT 48.741821 15.059654 34,000 246 439 0
2022-05-16 08:51:25 GMT 48.743916 15.066882 34,000 246 439 -64
2022-05-16 08:51:22 GMT 48.747547 15.079241 34,000 246 439 -64
2022-05-16 08:51:19 GMT 48.748718 15.083172 34,000 246 439 -64
2022-05-16 08:51:17 GMT 48.750854 15.090372 34,000 246 439 -64
2022-05-16 08:51:14 GMT 48.753662 15.099933 34,000 246 439 64
2022-05-16 08:51:12 GMT 48.754623 15.103243 34,000 246 439 64
2022-05-16 08:51:09 GMT 48.757965 15.114511 34,000 246 440 64
2022-05-16 08:51:06 GMT 48.760769 15.124054 34,000 246 440 -64
2022-05-16 08:51:02 GMT 48.763424 15.133016 34,000 246 440 -64
2022-05-16 08:50:59 GMT 48.766029 15.141907 34,000 247 440 -64
2022-05-16 08:50:56 GMT 48.771664 15.161061 34,000 247 440 0
2022-05-16 08:50:52 GMT 48.771664 15.161061 34,000 247 440 0
2022-05-16 08:50:49 GMT 48.774170 15.169654 34,000 247 440 0
2022-05-16 08:50:47 GMT 48.775665 15.174649 34,000 247 440 0
2022-05-16 08:50:43 GMT 48.779251 15.186864 34,000 247 440 -64
2022-05-16 08:50:41 GMT 48.780926 15.192574 34,000 247 440 0
2022-05-16 08:50:38 GMT 48.783207 15.200380 34,000 247 440 64
2022-05-16 08:50:35 GMT 48.786072 15.210219 34,000 247 441 64
2022-05-16 08:50:32 GMT 48.791382 15.228248 34,000 247 441 0
2022-05-16 08:50:28 GMT 48.791382 15.228248 34,000 247 441 64
2022-05-16 08:50:25 GMT 48.794312 15.238248 34,000 247 441 0
2022-05-16 08:50:21 GMT 48.797607 15.249446 34,000 247 441 0
2022-05-16 08:50:18 GMT 48.799942 15.257474 34,000 247 441 64
2022-05-16 08:50:15 GMT 48.802433 15.266009 34,000 247 440 0
2022-05-16 08:50:12 GMT 48.804886 15.274447 34,000 247 441 0
2022-05-16 08:50:09 GMT 48.807220 15.282475 34,000 247 440 -64
2022-05-16 08:50:07 GMT 48.809696 15.290945 34,000 247 440 -64
2022-05-16 08:50:04 GMT 48.811001 15.295426 34,000 247 440 -64
2022-05-16 08:50:01 GMT 48.813328 15.303305 34,000 247 440 64
2022-05-16 08:49:59 GMT 48.815327 15.310099 34,000 247 440 64
2022-05-16 08:49:57 GMT 48.816910 15.315520 34,000 247 440 64
2022-05-16 08:49:54 GMT 48.819889 15.325783 34,000 247 440 64
2022-05-16 08:49:51 GMT 48.822220 15.333734 34,000 247 440 -64
2022-05-16 08:49:48 GMT 48.824341 15.341069 34,000 247 440 -64
2022-05-16 08:49:45 GMT 48.827316 15.351210 34,000 247 439 0
2022-05-16 08:49:41 GMT 48.830246 15.361281 34,000 247 439 0
2022-05-16 08:49:38 GMT 48.832367 15.368644 34,000 247 439 0
2022-05-16 08:49:36 GMT 48.834370 15.375438 34,000 247 439 0
2022-05-16 08:49:33 GMT 48.836651 15.383317 34,000 247 439 0
2022-05-16 08:49:30 GMT 48.839581 15.393436 34,000 247 439 64
2022-05-16 08:49:27 GMT 48.845493 15.413674 34,000 247 439 64
2022-05-16 08:49:23 GMT 48.845493 15.413674 34,000 247 439 0
2022-05-16 08:49:20 GMT 48.847122 15.419312 34,000 247 439 0
2022-05-16 08:49:17 GMT 48.850204 15.429946 34,000 247 438 0
2022-05-16 08:49:14 GMT 48.852337 15.437309 34,000 247 439 0
2022-05-16 08:49:11 GMT 48.854618 15.445187 34,000 247 439 0
2022-05-16 08:49:08 GMT 48.857224 15.454150 34,000 247 438 0
2022-05-16 08:49:06 GMT 48.859505 15.462028 34,000 247 438 0
2022-05-16 08:49:03 GMT 48.861649 15.469384 34,000 247 438 0
2022-05-16 08:49:00 GMT 48.863617 15.476074 34,000 247 439 64
2022-05-16 08:48:57 GMT 48.868469 15.492906 34,000 247 438 -64
2022-05-16 08:48:54 GMT 48.868469 15.492906 34,000 247 438 0
2022-05-16 08:48:51 GMT 48.870438 15.499737 34,000 247 438 0
2022-05-16 08:48:48 GMT 48.873520 15.510455 34,000 247 438 0
2022-05-16 08:48:46 GMT 48.877754 15.524910 34,000 247 438 0
2022-05-16 08:48:43 GMT 48.880688 15.535174 34,000 247 438 0
2022-05-16 08:48:40 GMT 48.880688 15.535174 34,000 247 438 0
2022-05-16 08:48:37 GMT 48.883072 15.543401 34,000 247 438 0
2022-05-16 08:48:34 GMT 48.885086 15.550373 34,000 247 438 0
2022-05-16 08:48:30 GMT 48.888336 15.561570 34,000 247 438 0
2022-05-16 08:48:28 GMT 48.889984 15.567275 34,000 247 438 0
2022-05-16 08:48:25 GMT 48.892914 15.577416 34,000 247 438 0
2022-05-16 08:48:22 GMT 48.894516 15.583050 34,000 247 438 0
2022-05-16 08:48:19 GMT 48.896935 15.591334 34,000 247 438 0
2022-05-16 08:48:16 GMT 48.900242 15.602754 34,000 247 438 0
2022-05-16 08:48:13 GMT 48.902664 15.611150 34,000 247 438 0
2022-05-16 08:48:09 GMT 48.906059 15.622992 34,000 247 438 0
2022-05-16 08:48:06 GMT 48.908157 15.630235 34,000 247 439 0
2022-05-16 08:48:02 GMT 48.912415 15.645024 34,000 247 439 -64
2022-05-16 08:47:58 GMT 48.914062 15.650658 34,000 247 439 0
2022-05-16 08:47:54 GMT 48.918442 15.665926 34,000 247 440 -64
2022-05-16 08:47:51 GMT 48.919418 15.669323 34,000 247 440 -64
2022-05-16 08:47:48 GMT 48.922485 15.680096 34,000 247 441 0
2022-05-16 08:47:45 GMT 48.924587 15.687320 34,000 247 441 0
2022-05-16 08:47:42 GMT 48.926697 15.694674 34,000 247 442 64
2022-05-16 08:47:38 GMT 48.931961 15.712985 34,000 247 441 0
2022-05-16 08:47:35 GMT 48.932781 15.715870 34,000 247 442 64
2022-05-16 08:47:32 GMT 48.935577 15.725520 34,000 247 442 64
2022-05-16 08:47:28 GMT 48.939251 15.738349 34,000 247 443 0
2022-05-16 08:47:24 GMT 48.942398 15.749324 34,000 247 443 -64
2022-05-16 08:47:21 GMT 48.947491 15.767188 34,000 247 443 0
2022-05-16 08:47:18 GMT 48.947491 15.767188 34,000 247 442 0
2022-05-16 08:47:13 GMT 48.953522 15.788199 34,000 247 441 -64
2022-05-16 08:47:10 GMT 48.953522 15.788199 34,000 247 442 64
2022-05-16 08:47:07 GMT 48.955589 15.795376 34,000 247 442 0
2022-05-16 08:47:03 GMT 48.961781 15.817060 34,000 247 442 0
2022-05-16 08:47:00 GMT 48.961781 15.817060 34,000 247 442 0
2022-05-16 08:46:57 GMT 48.963783 15.824071 34,000 247 444 0
2022-05-16 08:46:54 GMT 48.966202 15.832566 34,000 247 444 0
2022-05-16 08:46:51 GMT 48.968998 15.842285 34,000 247 442 64
2022-05-16 08:46:48 GMT 48.971603 15.851392 34,000 247 442 64
2022-05-16 08:46:45 GMT 48.973709 15.858835 34,000 247 442 64
2022-05-16 08:46:42 GMT 48.975952 15.866793 34,000 247 442 0
2022-05-16 08:46:38 GMT 48.979706 15.879870 34,000 247 442 0
2022-05-16 08:46:35 GMT 48.982086 15.888202 34,000 247 442 -64
2022-05-16 08:46:32 GMT 48.984421 15.896442 34,000 247 442 -64
2022-05-16 08:46:29 GMT 48.986710 15.904471 34,000 247 442 0
2022-05-16 08:46:26 GMT 48.988827 15.911889 34,000 247 442 64
2022-05-16 08:46:23 GMT 48.991436 15.920996 34,000 247 442 0
2022-05-16 08:46:20 GMT 48.993851 15.929542 34,000 247 442 0
2022-05-16 08:46:17 GMT 48.996460 15.938697 34,000 247 443 64
2022-05-16 08:46:14 GMT 48.999443 15.949257 34,000 247 443 -64
2022-05-16 08:46:10 GMT 49.001953 15.958064 34,000 247 443 -64
2022-05-16 08:46:08 GMT 49.003445 15.963207 34,000 247 443 0
2022-05-16 08:46:05 GMT 49.005524 15.970600 34,000 247 443 64
2022-05-16 08:46:02 GMT 49.008938 15.982650 34,000 247 443 0
2022-05-16 08:45:59 GMT 49.013306 15.998066 34,000 247 443 -64
2022-05-16 08:45:56 GMT 49.013306 15.998066 34,000 247 443 0
2022-05-16 08:45:53 GMT 49.016556 16.009476 34,000 247 443 -64
2022-05-16 08:45:49 GMT 49.022205 16.029343 34,000 247 443 64
2022-05-16 08:45:46 GMT 49.022205 16.029343 34,000 247 443 64
2022-05-16 08:45:43 GMT 49.023697 16.034616 34,000 247 443 64
2022-05-16 08:45:40 GMT 49.026627 16.044970 34,000 247 443 0
2022-05-16 08:45:37 GMT 49.028629 16.052111 34,000 247 443 0
2022-05-16 08:45:34 GMT 49.031658 16.062735 34,000 247 443 0
2022-05-16 08:45:31 GMT 49.034122 16.071552 34,000 247 443 -64
2022-05-16 08:45:27 GMT 49.039665 16.091068 34,000 247 443 0
2022-05-16 08:45:24 GMT 49.039665 16.091068 34,000 247 443 0
2022-05-16 08:45:21 GMT 49.042099 16.099689 34,000 247 443 0
2022-05-16 08:45:18 GMT 49.044067 16.106590 34,000 247 443 0
2022-05-16 08:45:15 GMT 49.046677 16.115957 34,000 247 443 0
2022-05-16 08:45:11 GMT 49.049606 16.126240 34,000 247 443 0
2022-05-16 08:45:08 GMT 49.052170 16.135395 34,000 247 443 64
2022-05-16 08:45:05 GMT 49.055420 16.146805 34,000 247 443 0
2022-05-16 08:45:02 GMT 49.057022 16.152578 34,000 247 443 0
2022-05-16 08:44:59 GMT 49.059772 16.162262 34,000 247 442 -64
2022-05-16 08:44:57 GMT 49.061188 16.167439 34,000 247 443 0
2022-05-16 08:44:54 GMT 49.063545 16.175777 34,000 247 443 -64
2022-05-16 08:44:51 GMT 49.066040 16.184622 34,000 247 442 -64
2022-05-16 08:44:48 GMT 49.067917 16.191242 34,000 247 442 -64
2022-05-16 08:44:45 GMT 49.071213 16.203003 34,000 247 442 0
2022-05-16 08:44:42 GMT 49.073555 16.211267 34,000 247 442 64
2022-05-16 08:44:38 GMT 49.076935 16.223356 34,000 247 442 -64
2022-05-16 08:44:35 GMT 49.078583 16.229273 34,000 247 441 64
2022-05-16 08:44:32 GMT 49.081192 16.238426 34,000 247 441 64
2022-05-16 08:44:29 GMT 49.083755 16.247581 34,000 247 442 0
2022-05-16 08:44:25 GMT 49.087280 16.260118 34,000 247 442 -64
2022-05-16 08:44:22 GMT 49.089203 16.267019 34,000 247 442 -64
2022-05-16 08:44:19 GMT 49.091618 16.275595 34,000 247 442 0
2022-05-16 08:44:16 GMT 49.093849 16.283619 34,000 247 443 0
2022-05-16 08:44:13 GMT 49.096085 16.291639 34,000 247 442 0
2022-05-16 08:44:10 GMT 49.098972 16.301975 34,000 247 442 0
2022-05-16 08:44:07 GMT 49.103622 16.318571 34,000 247 441 64
2022-05-16 08:44:04 GMT 49.106506 16.328781 34,000 247 441 0
2022-05-16 08:44:01 GMT 49.108429 16.335684 34,000 247 441 -64
2022-05-16 08:43:58 GMT 49.108429 16.335684 34,000 247 441 0
2022-05-16 08:43:55 GMT 49.111446 16.346500 34,000 247 441 64
2022-05-16 08:43:51 GMT 49.114658 16.357920 34,000 247 441 -64
2022-05-16 08:43:48 GMT 49.116394 16.364206 34,000 247 441 0
2022-05-16 08:43:45 GMT 49.118801 16.372808 34,000 247 441 64
2022-05-16 08:43:42 GMT 49.121201 16.381390 34,000 247 441 0
2022-05-16 08:43:39 GMT 49.124405 16.392799 34,000 247 441 0
2022-05-16 08:43:35 GMT 49.126762 16.401360 34,000 247 441 -64
2022-05-16 08:43:32 GMT 49.128845 16.408785 34,000 247 441 64
2022-05-16 08:43:29 GMT 49.131233 16.417404 34,000 247 442 64
2022-05-16 08:43:26 GMT 49.134293 16.428223 34,000 247 442 64
2022-05-16 08:43:23 GMT 49.136353 16.435692 34,000 248 441 0
2022-05-16 08:43:20 GMT 49.139053 16.445406 34,000 248 441 -64
2022-05-16 08:43:16 GMT 49.141426 16.454050 34,000 247 442 0
2022-05-16 08:43:13 GMT 49.144966 16.466627 34,000 247 442 64
2022-05-16 08:43:09 GMT 49.147152 16.474649 34,000 248 441 0
2022-05-16 08:43:05 GMT 49.150692 16.487226 34,000 248 441 0
2022-05-16 08:43:02 GMT 49.153854 16.498646 34,000 248 441 0
2022-05-16 08:42:59 GMT 49.155437 16.504429 34,000 248 441 64
2022-05-16 08:42:56 GMT 49.157997 16.513535 34,000 248 441 0
2022-05-16 08:42:53 GMT 49.163544 16.533649 34,000 248 441 0
2022-05-16 08:42:49 GMT 49.163544 16.533649 34,000 248 441 0
2022-05-16 08:42:45 GMT 49.166428 16.543930 34,000 248 441 -64
2022-05-16 08:42:43 GMT 49.171188 16.561186 34,000 248 441 -64
2022-05-16 08:42:40 GMT 49.171188 16.561186 34,000 248 441 -64
2022-05-16 08:42:36 GMT 49.174526 16.573236 34,000 248 442 0
2022-05-16 08:42:33 GMT 49.176270 16.579496 34,000 248 442 -64
2022-05-16 08:42:29 GMT 49.179924 16.592752 34,000 248 442 -64
2022-05-16 08:42:26 GMT 49.181835 16.599619 34,000 248 442 -64
2022-05-16 08:42:23 GMT 49.185047 16.611111 34,000 248 442 64
2022-05-16 08:42:18 GMT 49.188034 16.622032 34,000 248 442 0
2022-05-16 08:42:15 GMT 49.190445 16.630699 34,000 248 443 64
2022-05-16 08:42:12 GMT 49.192795 16.639357 34,000 248 443 64
2022-05-16 08:42:09 GMT 49.195358 16.648514 34,000 248 443 0
2022-05-16 08:42:06 GMT 49.197430 16.655996 34,000 248 443 0
2022-05-16 08:42:03 GMT 49.199615 16.664091 34,000 248 443 -64
2022-05-16 08:42:00 GMT 49.202316 16.673866 34,000 248 443 64
2022-05-16 08:41:57 GMT 49.205200 16.684217 34,000 248 442 0
2022-05-16 08:41:54 GMT 49.208229 16.695171 34,000 248 443 0
2022-05-16 08:41:50 GMT 49.210136 16.702110 34,000 248 443 0
2022-05-16 08:41:47 GMT 49.213440 16.714218 34,000 248 443 0
2022-05-16 08:41:43 GMT 49.215816 16.722855 34,000 248 443 0
2022-05-16 08:41:40 GMT 49.218201 16.731474 34,000 248 443 64
2022-05-16 08:41:37 GMT 49.220566 16.740128 34,000 248 443 64
2022-05-16 08:41:34 GMT 49.223602 16.751053 34,000 248 443 64
2022-05-16 08:41:31 GMT 49.225159 16.756826 34,000 248 443 -64
2022-05-16 08:41:28 GMT 49.228199 16.767811 34,000 248 443 -64
2022-05-16 08:41:25 GMT 49.229599 16.773024 34,000 248 443 0
2022-05-16 08:41:22 GMT 49.232948 16.785086 34,000 248 443 64
2022-05-16 08:41:19 GMT 49.235001 16.792603 34,000 248 443 0
2022-05-16 08:41:16 GMT 49.236717 16.798964 34,000 248 443 0
2022-05-16 08:41:13 GMT 49.240211 16.811611 34,000 248 443 -64
2022-05-16 08:41:10 GMT 49.241795 16.817394 34,000 248 443 0
2022-05-16 08:41:07 GMT 49.244797 16.828379 34,000 248 443 0
2022-05-16 08:41:04 GMT 49.247147 16.837053 34,000 248 443 0
2022-05-16 08:41:01 GMT 49.249512 16.845703 34,000 248 443 0
2022-05-16 08:40:58 GMT 49.251114 16.851479 34,000 248 443 -64
2022-05-16 08:40:55 GMT 49.253803 16.861267 34,000 248 443 0
2022-05-16 08:40:52 GMT 49.255711 16.868206 34,000 248 443 0
2022-05-16 08:40:49 GMT 49.258987 16.880352 34,000 248 443 -64
2022-05-16 08:40:46 GMT 49.261066 16.887865 34,000 248 444 0
2022-05-16 08:40:43 GMT 49.263252 16.895962 34,000 248 444 0
2022-05-16 08:40:40 GMT 49.266418 16.907454 34,000 248 444 0
2022-05-16 08:40:37 GMT 49.268463 16.915003 34,000 248 444 0
2022-05-16 08:40:34 GMT 49.273357 16.932966 34,000 248 444 0
2022-05-16 08:40:31 GMT 49.273357 16.932966 34,000 248 444 0
2022-05-16 08:40:28 GMT 49.278259 16.950918 34,000 248 444 0
2022-05-16 08:40:25 GMT 49.278259 16.950918 34,000 248 444 0
2022-05-16 08:40:22 GMT 49.279861 16.956694 34,000 248 444 0
2022-05-16 08:40:19 GMT 49.282200 16.965347 34,000 248 445 0
2022-05-16 08:40:16 GMT 49.284897 16.975216 34,000 248 445 0
2022-05-16 08:40:13 GMT 49.286949 16.982767 34,000 248 445 0
2022-05-16 08:40:10 GMT 49.289337 16.991484 34,000 248 445 64
2022-05-16 08:40:07 GMT 49.291698 17.000187 34,000 248 445 0
2022-05-16 08:40:04 GMT 49.293732 17.007681 34,000 248 445 0
2022-05-16 08:40:01 GMT 49.296249 17.016977 34,000 248 445 0
2022-05-16 08:39:58 GMT 49.299240 17.028013 34,000 248 445 0
2022-05-16 08:39:55 GMT 49.301147 17.035025 34,000 248 445 -64
2022-05-16 08:39:52 GMT 49.303986 17.045433 34,000 248 445 0
2022-05-16 08:39:48 GMT 49.307007 17.056486 34,000 248 445 0
2022-05-16 08:39:45 GMT 49.309204 17.064585 34,000 248 445 0
2022-05-16 08:39:41 GMT 49.312637 17.077402 34,000 248 444 0
2022-05-16 08:39:38 GMT 49.317535 17.095377 34,000 248 444 0
2022-05-16 08:39:35 GMT 49.317535 17.095377 34,000 248 444 0
2022-05-16 08:39:30 GMT 49.320831 17.107615 34,000 248 444 0
2022-05-16 08:39:27 GMT 49.325546 17.125010 34,000 248 444 0
2022-05-16 08:39:24 GMT 49.325546 17.125010 34,000 248 443 0
2022-05-16 08:39:21 GMT 49.327587 17.132528 34,000 248 443 64
2022-05-16 08:39:18 GMT 49.330383 17.142937 34,000 248 443 0
2022-05-16 08:39:15 GMT 49.332733 17.151630 34,000 248 443 0
2022-05-16 08:39:12 GMT 49.335735 17.162668 34,000 248 443 0
2022-05-16 08:39:09 GMT 49.338203 17.171921 34,000 248 442 0
2022-05-16 08:39:06 GMT 49.340389 17.180016 34,000 248 442 0
2022-05-16 08:39:03 GMT 49.341972 17.185797 34,000 248 442 0
2022-05-16 08:39:00 GMT 49.344162 17.193893 34,000 248 442 0
2022-05-16 08:38:57 GMT 49.346630 17.203144 34,000 248 442 0
2022-05-16 08:38:54 GMT 49.349304 17.212971 34,000 248 442 0
2022-05-16 08:38:50 GMT 49.352097 17.223392 34,000 248 442 0
2022-05-16 08:38:47 GMT 49.354404 17.232056 34,000 248 442 -64
2022-05-16 08:38:44 GMT 49.357197 17.242464 34,000 248 442 -64
2022-05-16 08:38:41 GMT 49.361435 17.258043 34,000 248 442 0
2022-05-16 08:38:38 GMT 49.361435 17.258043 34,000 248 442 0
2022-05-16 08:38:35 GMT 49.364502 17.269592 34,000 248 442 0
2022-05-16 08:38:32 GMT 49.366058 17.275368 34,000 248 442 0
2022-05-16 08:38:29 GMT 49.369171 17.286917 34,000 248 442 0
2022-05-16 08:38:26 GMT 49.371368 17.295015 34,000 248 442 0
2022-05-16 08:38:23 GMT 49.373199 17.301989 34,000 248 442 0
2022-05-16 08:38:20 GMT 49.375397 17.310017 34,000 248 442 -64
2022-05-16 08:38:17 GMT 49.377728 17.318718 34,000 248 442 0
2022-05-16 08:38:14 GMT 49.380192 17.327969 34,000 248 442 -64
2022-05-16 08:38:11 GMT 49.383919 17.341846 34,000 248 442 64
2022-05-16 08:38:08 GMT 49.384689 17.344736 34,000 248 442 0
2022-05-16 08:38:05 GMT 49.389359 17.362131 34,000 248 442 0
2022-05-16 08:38:02 GMT 49.389359 17.362131 34,000 248 442 0
2022-05-16 08:37:59 GMT 49.394157 17.380081 34,000 248 442 0
2022-05-16 08:37:56 GMT 49.396774 17.389950 34,000 248 442 -64
2022-05-16 08:37:53 GMT 49.398972 17.398048 34,000 248 442 -64
2022-05-16 08:37:50 GMT 49.398972 17.398048 34,000 248 442 64
2022-05-16 08:37:47 GMT 49.401443 17.407274 34,000 248 442 0
2022-05-16 08:37:44 GMT 49.406960 17.428146 34,000 248 441 0
2022-05-16 08:37:40 GMT 49.406960 17.428146 34,000 248 441 0
2022-05-16 08:37:37 GMT 49.409008 17.435663 34,000 248 441 0
2022-05-16 08:37:34 GMT 49.411800 17.446072 34,000 248 441 0
2022-05-16 08:37:31 GMT 49.413803 17.453613 34,000 248 442 64
2022-05-16 08:37:28 GMT 49.415955 17.461712 34,000 248 441 0
2022-05-16 08:37:25 GMT 49.417995 17.469275 34,000 248 441 0
2022-05-16 08:37:22 GMT 49.422775 17.487206 34,000 248 441 0
2022-05-16 08:37:19 GMT 49.422775 17.487206 34,000 248 441 64
2022-05-16 08:37:15 GMT 49.426003 17.499414 34,000 248 441 -64
2022-05-16 08:37:12 GMT 49.429119 17.511019 34,000 248 441 -64
2022-05-16 08:37:09 GMT 49.430656 17.516809 34,000 248 441 -64
2022-05-16 08:37:05 GMT 49.434055 17.529577 34,000 248 441 0
2022-05-16 08:37:02 GMT 49.436325 17.538227 34,000 248 443 0
2022-05-16 08:36:59 GMT 49.438797 17.547480 34,000 248 441 64
2022-05-16 08:36:56 GMT 49.443420 17.564898 34,000 248 441 64
2022-05-16 08:36:53 GMT 49.443420 17.564898 34,000 248 441 0
2022-05-16 08:36:49 GMT 49.446167 17.575306 34,000 248 441 0
2022-05-16 08:36:46 GMT 49.450348 17.590967 34,000 248 441 0
2022-05-16 08:36:43 GMT 49.450348 17.590967 34,000 248 441 0
2022-05-16 08:36:40 GMT 49.452621 17.599665 34,000 248 441 0
2022-05-16 08:36:37 GMT 49.454956 17.608337 34,000 248 441 0
2022-05-16 08:36:34 GMT 49.457096 17.616428 34,000 248 441 0
2022-05-16 08:36:31 GMT 49.460171 17.628010 34,000 248 441 0
2022-05-16 08:36:28 GMT 49.462463 17.636744 34,000 248 441 -64
2022-05-16 08:36:25 GMT 49.464127 17.643078 34,000 248 441 0
2022-05-16 08:36:22 GMT 49.466446 17.651777 34,000 248 441 64
2022-05-16 08:36:19 GMT 49.468277 17.658789 34,000 248 441 64
2022-05-16 08:36:16 GMT 49.471809 17.672104 34,000 248 441 0
2022-05-16 08:36:12 GMT 49.474091 17.680759 34,000 249 441 0
2022-05-16 08:36:09 GMT 49.476696 17.690660 34,000 249 441 0
2022-05-16 08:36:05 GMT 49.480179 17.703962 34,000 249 441 0
2022-05-16 08:36:02 GMT 49.482468 17.712633 34,000 249 441 64
2022-05-16 08:35:58 GMT 49.485214 17.723101 34,000 249 441 -64
2022-05-16 08:35:55 GMT 49.487228 17.730633 34,000 249 441 -64
2022-05-16 08:35:52 GMT 49.489334 17.738728 34,000 249 441 -64
2022-05-16 08:35:49 GMT 49.491638 17.747448 34,000 249 441 64
2022-05-16 08:35:44 GMT 49.497574 17.770098 34,000 249 441 -64
2022-05-16 08:35:41 GMT 49.497574 17.770098 34,000 249 441 0
2022-05-16 08:35:38 GMT 49.500156 17.779963 34,000 249 441 0
2022-05-16 08:35:35 GMT 49.503067 17.790985 34,000 249 441 0
2022-05-16 08:35:32 GMT 49.504898 17.797997 34,000 249 441 0
2022-05-16 08:35:28 GMT 49.507324 17.807247 34,000 249 441 0
2022-05-16 08:35:25 GMT 49.510071 17.817728 34,000 249 441 0
2022-05-16 08:35:22 GMT 49.512959 17.828806 34,000 249 441 0
2022-05-16 08:35:19 GMT 49.515244 17.837532 34,000 249 441 0
2022-05-16 08:35:14 GMT 49.518311 17.849169 34,000 249 441 -64
2022-05-16 08:35:11 GMT 49.520874 17.859018 34,000 249 441 -64
2022-05-16 08:35:08 GMT 49.522736 17.866072 34,000 249 442 0
2022-05-16 08:35:05 GMT 49.525589 17.877142 34,000 249 442 64
2022-05-16 08:35:02 GMT 49.527420 17.884151 34,000 249 442 64
2022-05-16 08:34:59 GMT 49.529999 17.894056 34,000 249 442 0
2022-05-16 08:34:56 GMT 49.532417 17.903336 34,000 249 442 0
2022-05-16 08:34:53 GMT 49.535019 17.913280 34,000 248 443 0
2022-05-16 08:34:50 GMT 49.538589 17.926001 34,000 247 444 64
2022-05-16 08:34:47 GMT 49.538589 17.926001 34,000 247 444 64
2022-05-16 08:34:44 GMT 49.542522 17.939262 34,000 245 446 -64
2022-05-16 08:34:41 GMT 49.544662 17.946093 34,000 244 446 -64
2022-05-16 08:34:38 GMT 49.547642 17.955149 34,000 243 447 -64
2022-05-16 08:34:34 GMT 49.551132 17.965244 34,000 241 448 64
2022-05-16 08:34:31 GMT 49.554932 17.975874 34,000 240 449 64
2022-05-16 08:34:27 GMT 49.562351 17.995087 34,000 237 452 0
2022-05-16 08:34:24 GMT 49.562351 17.995087 34,000 239 450 64
2022-05-16 08:34:21 GMT 49.564587 18.000505 34,000 238 452 64
2022-05-16 08:34:18 GMT 49.567520 18.007530 34,000 237 452 0
2022-05-16 08:34:15 GMT 49.571941 18.017653 34,000 236 454 -64
2022-05-16 08:34:11 GMT 49.576317 18.027155 34,000 234 454 -64
2022-05-16 08:34:08 GMT 49.581345 18.037546 34,000 233 455 0
2022-05-16 08:34:05 GMT 49.584686 18.044176 34,000 233 455 0
2022-05-16 08:34:02 GMT 49.588512 18.051872 34,000 233 456 0
2022-05-16 08:33:59 GMT 49.592880 18.060583 34,000 233 456 64
2022-05-16 08:33:56 GMT 49.595490 18.065716 34,000 233 456 0
2022-05-16 08:33:53 GMT 49.599361 18.073400 34,000 233 455 0
2022-05-16 08:33:50 GMT 49.603729 18.082123 34,000 233 455 0
2022-05-16 08:33:46 GMT 49.608856 18.092386 34,000 233 455 -64
2022-05-16 08:33:43 GMT 49.612209 18.099085 34,000 233 456 0
2022-05-16 08:33:40 GMT 49.615540 18.105759 34,000 233 455 0
2022-05-16 08:33:37 GMT 49.619377 18.113485 34,000 233 456 0
2022-05-16 08:33:34 GMT 49.623779 18.122166 34,000 233 456 -64
2022-05-16 08:33:31 GMT 49.627899 18.130405 34,000 233 456 -64
2022-05-16 08:33:27 GMT 49.632523 18.139656 34,000 233 456 0
2022-05-16 08:33:24 GMT 49.635590 18.145800 34,000 233 457 0
2022-05-16 08:33:21 GMT 49.641537 18.157654 34,000 233 457 0
2022-05-16 08:33:18 GMT 49.645386 18.165316 34,000 233 457 0
2022-05-16 08:33:15 GMT 49.648754 18.172054 34,000 233 457 0
2022-05-16 08:33:12 GMT 49.651314 18.177177 34,000 233 457 0
2022-05-16 08:33:09 GMT 49.656994 18.188534 34,000 233 457 0
2022-05-16 08:33:06 GMT 49.661362 18.197262 34,000 233 457 -64
2022-05-16 08:33:03 GMT 49.663422 18.201382 34,000 233 457 64
2022-05-16 08:33:00 GMT 49.667282 18.209171 34,000 233 457 0
2022-05-16 08:32:57 GMT 49.671661 18.217934 34,000 233 457 64
2022-05-16 08:32:54 GMT 49.675278 18.225163 34,000 233 457 64
2022-05-16 08:32:50 GMT 49.680450 18.235498 34,000 233 457 0
2022-05-16 08:32:46 GMT 49.687134 18.248941 34,000 233 457 0
2022-05-16 08:32:43 GMT 49.690510 18.255640 34,000 233 458 0
2022-05-16 08:32:40 GMT 49.693584 18.261875 34,000 233 458 0
2022-05-16 08:32:37 GMT 49.697983 18.270697 34,000 233 457 0
2022-05-16 08:32:34 GMT 49.701096 18.276913 34,000 233 457 0
2022-05-16 08:32:31 GMT 49.704430 18.283625 34,000 233 458 0
2022-05-16 08:32:28 GMT 49.709335 18.293465 34,000 233 458 0
2022-05-16 08:32:25 GMT 49.713692 18.302258 34,000 233 458 0
2022-05-16 08:32:22 GMT 49.719887 18.314730 34,000 232 459 -64
2022-05-16 08:32:19 GMT 49.719887 18.314730 34,000 233 458 0
2022-05-16 08:32:16 GMT 49.724258 18.323532 34,000 233 458 64
2022-05-16 08:32:13 GMT 49.728127 18.331282 34,000 233 458 0
2022-05-16 08:32:10 GMT 49.732220 18.339596 34,000 233 458 -64
2022-05-16 08:32:07 GMT 49.736362 18.347836 34,000 233 457 -64
2022-05-16 08:32:03 GMT 49.739948 18.355110 34,000 233 457 0
2022-05-16 08:32:00 GMT 49.745117 18.365503 34,000 233 457 64
2022-05-16 08:31:56 GMT 49.750237 18.375822 34,000 233 457 64
2022-05-16 08:31:53 GMT 49.753052 18.381500 34,000 233 457 64
2022-05-16 08:31:50 GMT 49.761292 18.398125 34,000 233 457 0
2022-05-16 08:31:47 GMT 49.761292 18.398125 34,000 233 458 -64
2022-05-16 08:31:44 GMT 49.766418 18.408461 34,000 233 457 0
2022-05-16 08:31:41 GMT 49.769485 18.414677 34,000 233 457 0
2022-05-16 08:31:37 GMT 49.774612 18.425013 34,000 233 457 0
2022-05-16 08:31:34 GMT 49.777176 18.430216 34,000 233 457 0
2022-05-16 08:31:31 GMT 49.781521 18.439068 34,000 233 458 0
2022-05-16 08:31:28 GMT 49.785919 18.447851 34,000 233 458 -64
2022-05-16 08:31:24 GMT 49.795395 18.467052 34,000 228 463 0
2022-05-16 08:31:21 GMT 49.795395 18.467052 34,000 232 459 -64
2022-05-16 08:31:18 GMT 49.798737 18.473801 34,000 233 457 64
2022-05-16 08:31:15 GMT 49.803074 18.482641 34,000 233 457 64
2022-05-16 08:31:12 GMT 49.807892 18.492519 34,000 233 457 0
2022-05-16 08:31:09 GMT 49.810455 18.497725 34,000 232 458 0
2022-05-16 08:31:06 GMT 49.815033 18.507048 34,000 232 459 0
2022-05-16 08:31:02 GMT 49.819199 18.515287 34,000 232 459 -64
2022-05-16 08:30:59 GMT 49.823185 18.523024 34,000 231 459 -64
2022-05-16 08:30:56 GMT 49.828072 18.532154 34,000 230 461 -64
2022-05-16 08:30:53 GMT 49.830505 18.536610 34,000 230 461 0
2022-05-16 08:30:50 GMT 49.835541 18.545572 34,000 229 462 0
2022-05-16 08:30:47 GMT 49.840408 18.553978 34,000 228 463 -64
2022-05-16 08:30:44 GMT 49.843597 18.559305 34,000 220 470 0
2022-05-16 08:30:41 GMT 49.849766 18.569418 34,000 226 465 0
2022-05-16 08:30:38 GMT 49.852478 18.573761 34,000 226 465 0
2022-05-16 08:30:35 GMT 49.858238 18.582632 34,000 225 466 64
2022-05-16 08:30:32 GMT 49.862568 18.589165 34,000 224 466 64
2022-05-16 08:30:29 GMT 49.876236 18.608671 34,000 223 468 64
2022-05-16 08:30:24 GMT 49.876236 18.608671 34,000 222 469 -64
2022-05-16 08:30:20 GMT 49.880814 18.614815 34,000 221 470 -64
2022-05-16 08:30:17 GMT 49.886124 18.621754 34,000 220 470 0
2022-05-16 08:30:14 GMT 49.891151 18.628136 34,000 220 470 -64
2022-05-16 08:30:11 GMT 49.896835 18.635414 34,000 220 470 -64
2022-05-16 08:30:08 GMT 49.902557 18.642685 34,000 220 470 0
2022-05-16 08:30:05 GMT 49.906906 18.648279 34,000 220 470 64
2022-05-16 08:30:02 GMT 49.910934 18.653412 34,000 220 470 64
2022-05-16 08:29:59 GMT 49.918304 18.662807 34,000 220 470 0
2022-05-16 08:29:56 GMT 49.920666 18.665771 34,000 220 470 64
2022-05-16 08:29:53 GMT 49.932720 18.681211 34,000 220 470 0
2022-05-16 08:29:50 GMT 49.932720 18.681211 34,000 220 470 64
2022-05-16 08:29:47 GMT 49.937073 18.686731 34,000 220 470 -64
2022-05-16 08:29:44 GMT 49.941425 18.692272 34,000 220 470 0
2022-05-16 08:29:41 GMT 49.947479 18.699991 34,000 220 470 0
2022-05-16 08:29:38 GMT 49.951859 18.705597 34,000 220 470 0
2022-05-16 08:29:35 GMT 49.956787 18.711870 34,000 220 470 0
2022-05-16 08:29:32 GMT 49.962479 18.719185 34,000 220 470 0
2022-05-16 08:29:28 GMT 49.969254 18.727859 34,000 220 470 0
2022-05-16 08:29:25 GMT 49.975502 18.735771 34,000 220 470 -64
2022-05-16 08:29:22 GMT 49.978203 18.739334 34,000 220 470 -64
2022-05-16 08:29:18 GMT 49.985603 18.748762 34,000 220 470 0
2022-05-16 08:29:15 GMT 49.990723 18.755253 34,000 220 470 0
2022-05-16 08:29:12 GMT 49.994961 18.760714 34,000 220 470 -64
2022-05-16 08:29:09 GMT 50.000748 18.768118 34,000 220 470 0
2022-05-16 08:29:06 GMT 50.006104 18.774984 34,000 220 470 -64
2022-05-16 08:29:03 GMT 50.011162 18.781425 34,000 220 470 -64
2022-05-16 08:29:00 GMT 50.015816 18.787437 34,000 220 470 0
2022-05-16 08:28:57 GMT 50.020889 18.793921 34,000 220 470 0
2022-05-16 08:28:53 GMT 50.026886 18.801655 34,000 220 470 64
2022-05-16 08:28:50 GMT 50.033276 18.809856 34,000 220 470 0
2022-05-16 08:28:47 GMT 50.037598 18.815388 34,000 220 470 64
2022-05-16 08:28:43 GMT 50.043983 18.823589 34,000 220 470 64
2022-05-16 08:28:40 GMT 50.049683 18.830856 34,000 220 470 64
2022-05-16 08:28:37 GMT 50.053944 18.836355 34,000 220 470 0
2022-05-16 08:28:34 GMT 50.059067 18.842926 34,000 220 470 0
2022-05-16 08:28:31 GMT 50.063438 18.848532 34,000 220 470 0
2022-05-16 08:28:28 GMT 50.075775 18.864393 34,000 220 470 0
2022-05-16 08:28:25 GMT 50.080536 18.870537 34,000 220 471 0
2022-05-16 08:28:22 GMT 50.080536 18.870537 34,000 220 470 0
2022-05-16 08:28:17 GMT 50.087555 18.879559 34,000 220 470 0
2022-05-16 08:28:14 GMT 50.092255 18.885647 34,000 220 470 0
2022-05-16 08:28:11 GMT 50.097610 18.892550 34,000 220 471 64
2022-05-16 08:28:08 GMT 50.103973 18.900749 34,000 220 471 0
2022-05-16 08:28:04 GMT 50.109016 18.907173 34,000 220 471 0
2022-05-16 08:28:01 GMT 50.114731 18.914555 34,000 220 471 0
2022-05-16 08:27:57 GMT 50.121323 18.923012 34,000 220 472 0
2022-05-16 08:27:54 GMT 50.126129 18.929228 34,000 220 472 0
2022-05-16 08:27:51 GMT 50.131081 18.935604 34,000 220 472 -64
2022-05-16 08:27:48 GMT 50.136200 18.942238 34,000 220 471 -64
2022-05-16 08:27:45 GMT 50.141136 18.948595 34,000 220 471 0
2022-05-16 08:27:41 GMT 50.149796 18.959805 34,000 220 472 0
2022-05-16 08:27:38 GMT 50.153286 18.964258 34,000 220 472 0
2022-05-16 08:27:35 GMT 50.157196 18.969307 34,000 220 472 0
2022-05-16 08:27:32 GMT 50.163948 18.978065 34,000 220 472 0
2022-05-16 08:27:29 GMT 50.167252 18.982298 34,000 220 472 0
2022-05-16 08:27:26 GMT 50.174095 18.991203 34,000 220 471 0
2022-05-16 08:27:23 GMT 50.178101 18.996401 34,000 220 471 0
2022-05-16 08:27:20 GMT 50.183807 19.003746 34,000 220 471 0
2022-05-16 08:27:16 GMT 50.189713 19.011408 34,000 220 471 0
2022-05-16 08:27:13 GMT 50.196396 19.020008 34,000 220 471 0
2022-05-16 08:27:10 GMT 50.200165 19.024906 34,000 220 471 0
2022-05-16 08:27:06 GMT 50.211521 19.039679 34,000 220 471 -64
2022-05-16 08:27:03 GMT 50.211521 19.039679 34,000 220 471 0
2022-05-16 08:27:00 GMT 50.217316 19.047113 34,000 220 470 0
2022-05-16 08:26:56 GMT 50.223312 19.054918 34,000 220 470 0
2022-05-16 08:26:53 GMT 50.227982 19.060989 34,000 220 470 0
2022-05-16 08:26:50 GMT 50.233337 19.067928 34,000 220 470 0
2022-05-16 08:26:47 GMT 50.239689 19.076200 34,000 220 470 0
2022-05-16 08:26:43 GMT 50.244049 19.081806 34,000 220 470 0
2022-05-16 08:26:40 GMT 50.249649 19.089115 34,000 220 470 0
2022-05-16 08:26:36 GMT 50.257610 19.099436 34,000 220 470 0
2022-05-16 08:26:32 GMT 50.263412 19.106958 34,000 220 470 0
2022-05-16 08:26:29 GMT 50.267616 19.112425 34,000 220 470 0
2022-05-16 08:26:26 GMT 50.273438 19.119968 34,000 220 470 0
2022-05-16 08:26:22 GMT 50.279434 19.127848 34,000 220 470 0
2022-05-16 08:26:19 GMT 50.286118 19.136520 34,000 220 470 0
2022-05-16 08:26:15 GMT 50.300125 19.154736 34,000 220 470 0
2022-05-16 08:26:11 GMT 50.300125 19.154736 34,000 220 470 -64
2022-05-16 08:26:08 GMT 50.303467 19.159073 34,000 220 470 0
2022-05-16 08:26:05 GMT 50.309418 19.166878 34,000 220 470 0
2022-05-16 08:26:02 GMT 50.313446 19.172083 34,000 220 470 0
2022-05-16 08:25:59 GMT 50.317474 19.177359 34,000 220 470 0
2022-05-16 08:25:56 GMT 50.324707 19.186827 34,000 220 470 0
2022-05-16 08:25:53 GMT 50.333496 19.198175 34,000 220 470 0
2022-05-16 08:25:50 GMT 50.333496 19.198175 34,000 220 470 0
2022-05-16 08:25:47 GMT 50.339493 19.206053 34,000 220 470 64
2022-05-16 08:25:43 GMT 50.345081 19.213381 34,000 220 470 64
2022-05-16 08:25:40 GMT 50.356998 19.228895 34,000 220 469 0
2022-05-16 08:25:37 GMT 50.356998 19.228895 34,000 220 470 0
2022-05-16 08:25:34 GMT 50.360489 19.233423 34,000 220 469 0
2022-05-16 08:25:31 GMT 50.364807 19.239084 34,000 220 470 64
2022-05-16 08:25:28 GMT 50.370453 19.246489 34,000 220 469 0
2022-05-16 08:25:25 GMT 50.375805 19.253466 34,000 220 469 0
2022-05-16 08:25:22 GMT 50.380096 19.259106 34,000 220 469 0
2022-05-16 08:25:19 GMT 50.385361 19.265972 34,000 220 469 0
2022-05-16 08:25:15 GMT 50.398384 19.283010 34,000 220 469 0
2022-05-16 08:25:12 GMT 50.401733 19.287390 34,000 220 469 0
2022-05-16 08:25:09 GMT 50.407379 19.294811 34,000 220 468 0
2022-05-16 08:25:05 GMT 50.407379 19.294811 34,000 220 468 0
2022-05-16 08:25:02 GMT 50.413284 19.302616 34,000 220 468 0
2022-05-16 08:24:59 GMT 50.418217 19.309067 34,000 220 468 0
2022-05-16 08:24:55 GMT 50.424221 19.316935 34,000 220 468 0
2022-05-16 08:24:52 GMT 50.429260 19.323505 34,000 220 468 -64
2022-05-16 08:24:49 GMT 50.434879 19.330891 34,000 221 467 0
2022-05-16 08:24:46 GMT 50.440838 19.338684 34,000 221 467 0
2022-05-16 08:24:43 GMT 50.444798 19.343954 34,000 221 467 0
2022-05-16 08:24:40 GMT 50.450409 19.351334 34,000 221 467 0
2022-05-16 08:24:37 GMT 50.454712 19.356945 34,000 221 467 0
2022-05-16 08:24:34 GMT 50.465324 19.370901 34,000 221 467 0
2022-05-16 08:24:31 GMT 50.465324 19.370901 34,000 221 467 0
2022-05-16 08:24:28 GMT 50.468948 19.375690 34,000 221 467 0
2022-05-16 08:24:25 GMT 50.474590 19.383076 34,000 220 468 -64
2022-05-16 08:24:22 GMT 50.479477 19.389568 34,000 221 467 0
2022-05-16 08:24:19 GMT 50.484505 19.396139 34,000 220 468 -64
2022-05-16 08:24:16 GMT 50.490322 19.403786 34,000 220 468 0
2022-05-16 08:24:13 GMT 50.499077 19.415291 34,000 221 466 0
2022-05-16 08:24:10 GMT 50.499077 19.415291 34,000 221 467 0
2022-05-16 08:24:07 GMT 50.506027 19.424479 34,000 221 467 0
2022-05-16 08:24:04 GMT 50.509323 19.428816 34,000 221 467 0
2022-05-16 08:24:01 GMT 50.514297 19.435333 34,000 221 467 0
2022-05-16 08:23:58 GMT 50.525425 19.450031 34,000 221 467 0
2022-05-16 08:23:55 GMT 50.525425 19.450031 34,000 221 466 -64
2022-05-16 08:23:51 GMT 50.532440 19.459316 34,000 221 467 0
2022-05-16 08:23:48 GMT 50.536423 19.464594 34,000 221 467 -64
2022-05-16 08:23:43 GMT 50.544983 19.475941 34,000 221 466 -64
2022-05-16 08:23:40 GMT 50.549561 19.481939 34,000 221 466 0
2022-05-16 08:23:37 GMT 50.555557 19.489819 34,000 221 466 0
2022-05-16 08:23:33 GMT 50.560730 19.496685 34,000 221 466 0
2022-05-16 08:23:30 GMT 50.565445 19.502901 34,000 221 466 0
2022-05-16 08:23:27 GMT 50.570301 19.509418 34,000 221 466 0
2022-05-16 08:23:23 GMT 50.576305 19.517286 34,000 221 466 0
2022-05-16 08:23:20 GMT 50.582264 19.525154 34,000 221 466 0
2022-05-16 08:23:17 GMT 50.587524 19.532133 34,000 221 466 0
2022-05-16 08:23:13 GMT 50.593781 19.540413 34,000 221 466 0
2022-05-16 08:23:09 GMT 50.604996 19.555304 34,000 221 467 64
2022-05-16 08:23:06 GMT 50.604996 19.555304 34,000 221 468 64
2022-05-16 08:23:03 GMT 50.609825 19.561678 34,000 221 468 64
2022-05-16 08:23:00 GMT 50.616257 19.570192 34,000 221 468 64
2022-05-16 08:22:57 GMT 50.620102 19.575323 34,000 221 468 64
2022-05-16 08:22:54 GMT 50.626831 19.584213 34,000 221 469 128
2022-05-16 08:22:50 GMT 50.630814 19.589491 34,000 221 469 128
2022-05-16 08:22:47 GMT 50.642075 19.604452 32,875 221 469 128
2022-05-16 08:22:43 GMT 50.642075 19.604452 33,975 221 469 192
2022-05-16 08:22:40 GMT 50.647980 19.612329 33,975 221 470 384
2022-05-16 08:22:37 GMT 50.652008 19.617680 33,925 221 469 832
2022-05-16 08:22:34 GMT 50.657635 19.625145 33,900 221 469 1024
2022-05-16 08:22:31 GMT 50.664291 19.633980 33,850 221 469 1216
2022-05-16 08:22:27 GMT 50.668579 19.639725 33,800 221 469 1472
2022-05-16 08:22:24 GMT 50.674530 19.647636 33,700 221 469 1472
2022-05-16 08:22:20 GMT 50.681168 19.656471 33,550 221 470 1472
2022-05-16 08:22:17 GMT 50.686123 19.663010 33,550 221 471 1472
2022-05-16 08:22:13 GMT 50.693710 19.673100 33,375 221 471 1408
2022-05-16 08:22:09 GMT 50.698647 19.679718 33,150 221 471 1472
2022-05-16 08:22:06 GMT 50.704422 19.687426 33,250 221 471 1408
2022-05-16 08:22:03 GMT 50.710419 19.695370 33,200 221 471 1472
2022-05-16 08:22:00 GMT 50.715729 19.702496 33,125 221 471 1472
2022-05-16 08:21:56 GMT 50.720013 19.708176 33,025 221 473 1472
2022-05-16 08:21:53 GMT 50.726395 19.716673 32,875 221 473 1408
2022-05-16 08:21:50 GMT 50.732071 19.724274 32,875 221 473 1408
2022-05-16 08:21:46 GMT 50.737061 19.730927 32,800 221 473 1408
2022-05-16 08:21:43 GMT 50.744980 19.741467 32,700 221 474 1472
2022-05-16 08:21:40 GMT 50.748413 19.746069 32,575 221 474 1408
2022-05-16 08:21:37 GMT 50.752785 19.751892 32,525 221 474 1344
2022-05-16 08:21:34 GMT 50.756424 19.756758 32,525 221 474 1344
2022-05-16 08:21:31 GMT 50.762794 19.765244 32,425 221 474 1088
2022-05-16 08:21:28 GMT 50.768799 19.773331 32,375 221 474 1088
2022-05-16 08:21:25 GMT 50.772152 19.777756 32,300 221 474 1088
2022-05-16 08:21:22 GMT 50.777847 19.785412 32,275 221 474 1088
2022-05-16 08:21:19 GMT 50.782860 19.792099 32,175 221 474 1088
2022-05-16 08:21:15 GMT 50.789200 19.800554 32,125 221 473 1088
2022-05-16 08:21:12 GMT 50.795521 19.809113 32,100 221 473 1024
2022-05-16 08:21:08 GMT 50.799866 19.814882 31,925 221 472 960
2022-05-16 08:21:05 GMT 50.806229 19.823380 31,975 221 472 960
2022-05-16 08:21:02 GMT 50.816006 19.836502 31,925 221 472 960
2022-05-16 08:20:59 GMT 50.816006 19.836502 31,875 221 472 1024
2022-05-16 08:20:56 GMT 50.826805 19.850998 31,800 221 471 1088
2022-05-16 08:20:53 GMT 50.826805 19.850998 31,775 221 471 1152
2022-05-16 08:20:49 GMT 50.832809 19.859085 31,700 221 471 1216
2022-05-16 08:20:46 GMT 50.838768 19.867096 31,650 221 471 1216
2022-05-16 08:20:43 GMT 50.842587 19.872208 31,600 221 471 1216
2022-05-16 08:20:40 GMT 50.847061 19.878202 31,500 221 471 1152
2022-05-16 08:20:37 GMT 50.854340 19.888000 31,450 221 470 1152
2022-05-16 08:20:34 GMT 50.857635 19.892454 31,375 221 470 1216
2022-05-16 08:20:31 GMT 50.862602 19.899063 31,350 221 470 1216
2022-05-16 08:20:28 GMT 50.867569 19.905743 31,275 221 470 1280
2022-05-16 08:20:25 GMT 50.872379 19.912262 31,200 221 469 1344
2022-05-16 08:20:22 GMT 50.877777 19.919586 31,150 221 468 1344
2022-05-16 08:20:18 GMT 50.883087 19.926682 31,050 221 468 1280
2022-05-16 08:20:15 GMT 50.889648 19.935532 30,925 221 468 1280
2022-05-16 08:20:11 GMT 50.896259 19.944458 30,900 221 468 1216
2022-05-16 08:20:08 GMT 50.902172 19.952469 30,850 221 468 1216
2022-05-16 08:20:05 GMT 50.905151 19.956442 30,800 221 468 1216
2022-05-16 08:20:02 GMT 50.911057 19.964458 30,625 221 468 1280
2022-05-16 08:19:58 GMT 50.916649 19.972000 30,650 221 468 1280
2022-05-16 08:19:55 GMT 50.921585 19.978638 30,600 221 467 1280
2022-05-16 08:19:52 GMT 50.928131 19.987471 30,525 221 466 1280
2022-05-16 08:19:49 GMT 50.932755 19.993708 30,450 221 466 1344
2022-05-16 08:19:46 GMT 50.936005 19.998161 29,175 221 465 1280
2022-05-16 08:19:43 GMT 50.941269 20.005213 30,350 221 465 1280
2022-05-16 08:19:40 GMT 50.946163 20.011826 30,250 221 465 1216
2022-05-16 08:19:37 GMT 50.951065 20.018499 30,150 221 465 1280
2022-05-16 08:19:34 GMT 50.956924 20.026443 30,150 221 464 1344
2022-05-16 08:19:30 GMT 50.963154 20.034866 30,075 221 464 1344
2022-05-16 08:19:27 GMT 50.967579 20.040894 30,000 221 464 1344
2022-05-16 08:19:24 GMT 50.973221 20.048565 29,700 221 462 1280
2022-05-16 08:19:20 GMT 50.980053 20.057831 29,850 221 463 1216
2022-05-16 08:19:16 GMT 50.986572 20.066605 29,775 221 462 1216
2022-05-16 08:19:12 GMT 50.992081 20.074100 29,675 221 462 1280
2022-05-16 08:19:09 GMT 51.001785 20.087313 29,600 221 460 1344
2022-05-16 08:19:06 GMT 51.001785 20.087313 29,550 221 460 1344
2022-05-16 08:19:03 GMT 51.006317 20.093475 28,800 215 458 960
2022-05-16 08:19:00 GMT 51.011150 20.100021 29,450 221 460 1408
2022-05-16 08:18:56 GMT 51.019531 20.111465 29,325 221 460 1408
2022-05-16 08:18:51 GMT 51.026001 20.120239 29,225 221 459 1216
2022-05-16 08:18:48 GMT 51.034653 20.132074 29,150 221 458 1152
2022-05-16 08:18:45 GMT 51.034653 20.132074 29,100 221 457 1088
2022-05-16 08:18:42 GMT 51.042015 20.142212 29,050 220 457 1152
2022-05-16 08:18:39 GMT 51.045040 20.146332 29,000 221 457 1152
2022-05-16 08:18:36 GMT 51.048950 20.151596 28,950 220 456 1152
2022-05-16 08:18:33 GMT 51.055515 20.160065 28,875 219 457 1152
2022-05-16 08:18:29 GMT 51.062172 20.168152 28,800 216 458 1024
2022-05-16 08:18:26 GMT 51.067852 20.174637 28,750 214 459 960
2022-05-16 08:18:23 GMT 51.072372 20.179585 28,650 214 458 960
2022-05-16 08:18:20 GMT 51.078049 20.185448 28,650 213 459 960
2022-05-16 08:18:17 GMT 51.083447 20.190811 28,625 212 459 1024
2022-05-16 08:18:14 GMT 51.088566 20.195618 28,450 209 459 1216
2022-05-16 08:18:11 GMT 51.093338 20.199997 28,450 208 459 1216
2022-05-16 08:18:08 GMT 51.098763 20.204697 28,425 207 459 1216
2022-05-16 08:18:05 GMT 51.106888 20.211206 28,375 206 460 1152
2022-05-16 08:18:00 GMT 51.114624 20.216848 28,275 203 461 960
2022-05-16 08:17:56 GMT 51.122498 20.221970 28,250 201 461 1024
2022-05-16 08:17:52 GMT 51.130138 20.226364 28,150 200 461 1280
2022-05-16 08:17:49 GMT 51.142593 20.233253 28,075 200 460 1344
2022-05-16 08:17:46 GMT 51.142593 20.233253 28,050 199 458 1344
2022-05-16 08:17:42 GMT 51.152435 20.238647 27,925 199 458 1408
2022-05-16 08:17:38 GMT 51.159439 20.242458 27,825 199 457 1408
2022-05-16 08:17:35 GMT 51.165424 20.245743 27,775 199 457 1408
2022-05-16 08:17:32 GMT 51.170425 20.248470 27,725 199 456 1408
2022-05-16 08:17:29 GMT 51.177017 20.252033 27,650 199 456 1408
2022-05-16 08:17:26 GMT 51.181999 20.254745 27,550 199 455 1472
2022-05-16 08:17:23 GMT 51.188560 20.258331 27,475 199 454 1600
2022-05-16 08:17:20 GMT 51.194550 20.261610 27,300 200 454 1664
2022-05-16 08:17:16 GMT 51.204071 20.266880 27,300 200 454 1664
2022-05-16 08:17:13 GMT 51.209976 20.270157 27,225 200 454 1600
2022-05-16 08:17:09 GMT 51.221848 20.276718 27,125 200 453 1600
2022-05-16 08:17:06 GMT 51.221848 20.276718 27,000 200 452 1600
2022-05-16 08:17:03 GMT 51.228424 20.280315 26,900 200 452 1600
2022-05-16 08:17:00 GMT 51.234322 20.283585 26,900 200 451 1600
2022-05-16 08:16:57 GMT 51.241585 20.287628 26,775 200 451 1536
2022-05-16 08:16:54 GMT 51.247684 20.291061 26,675 200 450 1472
2022-05-16 08:16:51 GMT 51.251404 20.293158 26,650 200 449 1472
2022-05-16 08:16:48 GMT 51.258453 20.297092 26,575 200 449 1472
2022-05-16 08:16:44 GMT 51.267059 20.301918 26,500 200 448 1408
2022-05-16 08:16:41 GMT 51.270950 20.304146 26,425 200 447 1408
2022-05-16 08:16:38 GMT 51.276031 20.306931 26,350 200 447 1408
2022-05-16 08:16:35 GMT 51.283016 20.310898 26,275 200 445 1408
2022-05-16 08:16:32 GMT 51.288712 20.314018 26,175 200 445 1472
2022-05-16 08:16:29 GMT 51.302429 20.321579 26,125 200 444 1472
2022-05-16 08:16:26 GMT 51.302429 20.321579 26,050 200 444 1472
2022-05-16 08:16:21 GMT 51.311966 20.326860 25,950 199 443 1472
2022-05-16 08:16:18 GMT 51.314812 20.328369 25,925 199 441 1472
2022-05-16 08:16:15 GMT 51.320618 20.331535 25,825 199 441 1472
2022-05-16 08:16:12 GMT 51.326405 20.334702 25,750 199 440 1536
2022-05-16 08:16:09 GMT 51.335667 20.339661 25,625 199 439 1600
2022-05-16 08:16:04 GMT 51.343735 20.344082 25,525 199 438 1728
2022-05-16 08:16:01 GMT 51.350510 20.347719 25,425 199 437 1728
2022-05-16 08:15:58 GMT 51.353310 20.349197 25,425 199 437 1728
2022-05-16 08:15:55 GMT 51.360199 20.352936 25,275 199 437 1856
2022-05-16 08:15:51 GMT 51.367493 20.356775 25,075 199 437 1920
2022-05-16 08:15:48 GMT 51.372444 20.359421 25,000 199 437 1920
2022-05-16 08:15:45 GMT 51.378983 20.362862 24,950 199 437 1920
2022-05-16 08:15:41 GMT 51.387012 20.367126 24,750 199 436 1984
2022-05-16 08:15:38 GMT 51.391983 20.369692 24,725 199 436 1984
2022-05-16 08:15:35 GMT 51.398117 20.372885 24,625 199 436 2048
2022-05-16 08:15:32 GMT 51.409607 20.378897 24,475 199 436 2112
2022-05-16 08:15:29 GMT 51.409607 20.378897 24,375 199 435 2112
2022-05-16 08:15:26 GMT 51.415363 20.381851 24,250 199 435 2048
2022-05-16 08:15:23 GMT 51.422997 20.385895 24,175 199 435 1920
2022-05-16 08:15:19 GMT 51.428959 20.389023 24,075 199 435 1856
2022-05-16 08:15:15 GMT 51.435608 20.392555 23,950 199 434 1792
2022-05-16 08:15:12 GMT 51.443207 20.396639 23,825 199 433 1728
2022-05-16 08:15:09 GMT 51.447739 20.399014 23,750 199 432 1728
2022-05-16 08:15:05 GMT 51.457771 20.404434 23,650 199 431 1600
2022-05-16 08:15:01 GMT 51.463623 20.407551 23,450 199 429 1536
2022-05-16 08:14:58 GMT 51.469620 20.410816 23,500 199 428 1536
2022-05-16 08:14:54 GMT 51.475277 20.413818 23,250 199 423 1472
2022-05-16 08:14:51 GMT 51.486450 20.419922 23,300 199 425 1408
2022-05-16 08:14:48 GMT 51.486450 20.419922 23,275 199 425 1408
2022-05-16 08:14:44 GMT 51.494457 20.424271 23,175 199 423 1472
2022-05-16 08:14:40 GMT 51.504230 20.429535 22,975 199 420 1472
2022-05-16 08:14:37 GMT 51.508255 20.431749 23,000 199 419 1536
2022-05-16 08:14:34 GMT 51.513031 20.434418 22,600 199 417 1664
2022-05-16 08:14:31 GMT 51.519974 20.438208 22,800 200 416 1856
2022-05-16 08:14:28 GMT 51.524323 20.440657 22,700 200 416 1984
2022-05-16 08:14:25 GMT 51.530823 20.444296 22,625 200 415 2112
2022-05-16 08:14:22 GMT 51.540588 20.449829 22,475 200 414 2240
2022-05-16 08:14:19 GMT 51.540588 20.449829 22,375 200 413 2304
2022-05-16 08:14:16 GMT 51.544556 20.452015 22,100 200 413 2368
2022-05-16 08:14:13 GMT 51.550186 20.455208 22,225 200 413 2304
2022-05-16 08:14:10 GMT 51.563278 20.462629 22,025 200 413 2368
2022-05-16 08:14:07 GMT 51.563278 20.462629 21,950 200 412 2368
2022-05-16 08:14:04 GMT 51.567627 20.465080 21,800 200 412 2304
2022-05-16 08:14:00 GMT 51.579273 20.471725 21,650 200 411 2176
2022-05-16 08:13:57 GMT 51.579273 20.471725 21,575 200 411 2176
2022-05-16 08:13:54 GMT 51.585186 20.475082 21,350 200 410 2176
2022-05-16 08:13:49 GMT 51.595196 20.480804 21,175 200 409 2112
2022-05-16 08:13:46 GMT 51.604275 20.485992 21,025 200 407 2048
2022-05-16 08:13:43 GMT 51.604275 20.485992 21,075 200 408 2048
2022-05-16 08:13:40 GMT 51.610882 20.489731 20,975 200 407 2048
2022-05-16 08:13:36 GMT 51.623592 20.496979 20,650 200 403 1920
2022-05-16 08:13:33 GMT 51.623592 20.496979 20,750 200 404 1920
2022-05-16 08:13:28 GMT 51.631321 20.501404 20,600 200 403 1984
2022-05-16 08:13:25 GMT 51.636253 20.504227 20,450 200 401 2176
2022-05-16 08:13:21 GMT 51.642540 20.507889 20,200 200 399 2304
2022-05-16 08:13:18 GMT 51.649109 20.511772 20,125 200 398 2304
2022-05-16 08:13:15 GMT 51.653618 20.514374 19,925 200 397 2368
2022-05-16 08:13:11 GMT 51.659855 20.518036 20,000 200 397 2368
2022-05-16 08:13:06 GMT 51.670891 20.524521 19,750 201 397 2432
2022-05-16 08:13:01 GMT 51.677780 20.528564 19,300 200 394 2496
2022-05-16 08:12:58 GMT 51.684669 20.532608 19,375 200 394 2560
2022-05-16 08:12:55 GMT 51.689465 20.535431 19,300 200 394 2496
2022-05-16 08:12:52 GMT 51.694611 20.538422 19,125 201 393 2496
2022-05-16 08:12:49 GMT 51.700058 20.541687 19,050 201 393 2496
2022-05-16 08:12:44 GMT 51.708595 20.546646 18,850 200 392 2240
2022-05-16 08:12:41 GMT 51.711994 20.548630 18,775 200 392 2240
2022-05-16 08:12:38 GMT 51.717773 20.552006 18,625 200 390 2176
2022-05-16 08:12:35 GMT 51.722889 20.555038 18,450 200 389 2112
2022-05-16 08:12:32 GMT 51.728622 20.558390 18,425 201 387 2112
2022-05-16 08:12:28 GMT 51.734665 20.561953 18,300 201 386 2176
2022-05-16 08:12:25 GMT 51.738342 20.564117 18,225 201 385 2240
2022-05-16 08:12:21 GMT 51.753006 20.572662 17,875 201 382 2304
2022-05-16 08:12:17 GMT 51.753006 20.572662 17,775 201 381 2368
2022-05-16 08:12:14 GMT 51.757324 20.575239 17,800 201 381 2368
2022-05-16 08:12:11 GMT 51.763916 20.579100 17,600 201 378 2496
2022-05-16 08:12:08 GMT 51.769180 20.582218 17,500 201 378 2560
2022-05-16 08:12:04 GMT 51.775085 20.585707 16,925 201 375 2880
2022-05-16 08:12:01 GMT 51.778706 20.587845 16,900 201 375 2944
2022-05-16 08:11:57 GMT 51.785873 20.592041 16,375 200 374 3136
2022-05-16 08:11:54 GMT 51.790787 20.594986 16,875 201 375 2944
2022-05-16 08:11:51 GMT 51.795044 20.597458 16,675 201 375 3072
2022-05-16 08:11:48 GMT 51.805756 20.603745 16,550 200 374 3072
2022-05-16 08:11:44 GMT 51.805756 20.603745 16,425 200 374 3136
2022-05-16 08:11:41 GMT 51.812595 20.607758 16,225 200 374 3136
2022-05-16 08:11:36 GMT 51.820724 20.612579 15,950 200 374 3200
2022-05-16 08:11:32 GMT 51.830521 20.618294 15,600 200 374 3264
2022-05-16 08:11:26 GMT 51.835358 20.621185 15,275 200 374 3200
2022-05-16 08:11:23 GMT 51.839920 20.623856 15,200 200 374 3200
2022-05-16 08:11:20 GMT 51.846130 20.627424 15,100 200 374 3200
2022-05-16 08:11:17 GMT 51.851990 20.630840 14,850 201 373 3072
2022-05-16 08:11:14 GMT 51.855240 20.632771 14,725 200 373 3072
2022-05-16 08:11:11 GMT 51.861382 20.636368 14,600 200 373 3008
2022-05-16 08:11:06 GMT 51.868195 20.640341 14,200 200 372 2816
2022-05-16 08:11:03 GMT 51.873367 20.643385 14,200 200 371 2752
2022-05-16 08:11:00 GMT 51.877853 20.646057 13,775 200 363 1664
2022-05-16 08:10:55 GMT 51.884949 20.650213 13,950 201 368 2176
2022-05-16 08:10:51 GMT 51.892246 20.654449 13,775 201 365 1728
2022-05-16 08:10:48 GMT 51.896667 20.657043 13,725 200 362 1536
2022-05-16 08:10:43 GMT 51.905418 20.662224 13,600 201 356 1088
2022-05-16 08:10:40 GMT 51.909439 20.664597 13,575 201 351 1024
2022-05-16 08:10:36 GMT 51.917011 20.669128 13,475 201 346 1216
2022-05-16 08:10:31 GMT 51.923576 20.672974 13,350 201 340 1856
2022-05-16 08:10:28 GMT 51.926506 20.674780 13,275 201 337 2176
2022-05-16 08:10:25 GMT 51.932053 20.678024 13,125 201 334 2752
2022-05-16 08:10:22 GMT 51.940987 20.683411 12,925 201 332 2944
2022-05-16 08:10:19 GMT 51.940987 20.683411 12,825 201 331 2880
2022-05-16 08:10:15 GMT 51.946712 20.686785 12,650 201 330 2816
2022-05-16 08:10:12 GMT 51.950157 20.688826 12,450 201 328 2816
2022-05-16 08:10:09 GMT 51.955833 20.692200 12,350 201 327 2880
2022-05-16 08:10:04 GMT 51.961807 20.695724 12,150 201 325 2880
2022-05-16 08:10:01 GMT 51.966030 20.698242 11,975 201 323 2944
2022-05-16 08:09:58 GMT 51.969940 20.700518 11,750 200 322 2944
2022-05-16 08:09:55 GMT 51.975014 20.703501 11,675 201 321 2880
2022-05-16 08:09:51 GMT 51.981113 20.707109 11,475 201 319 2688
2022-05-16 08:09:48 GMT 51.985535 20.709778 11,350 201 317 2496
2022-05-16 08:09:45 GMT 51.989639 20.712204 11,225 201 315 2304
2022-05-16 08:09:40 GMT 51.995087 20.715485 10,900 201 310 2176
2022-05-16 08:09:37 GMT 51.999130 20.717861 10,900 201 310 2176
2022-05-16 08:09:34 GMT 52.003143 20.720291 10,875 201 305 2240
2022-05-16 08:09:30 GMT 52.012573 20.725937 10,625 201 299 2944
2022-05-16 08:09:27 GMT 52.016956 20.728533 10,200 201 297 3392
2022-05-16 08:09:23 GMT 52.016956 20.728533 10,375 201 298 3392
2022-05-16 08:09:20 GMT 52.021362 20.731125 10,175 201 297 3392
2022-05-16 08:09:17 GMT 52.024734 20.733164 10,025 201 296 3456
2022-05-16 08:09:14 GMT 52.029602 20.736084 9,800 201 295 3456
2022-05-16 08:09:10 GMT 52.034729 20.739136 9,575 201 295 3392
2022-05-16 08:09:07 GMT 52.038559 20.741404 9,425 201 294 3328
2022-05-16 08:09:03 GMT 52.043121 20.744070 9,225 200 293 3200
2022-05-16 08:08:59 GMT 52.047729 20.746817 9,025 200 291 3200
2022-05-16 08:08:56 GMT 52.052032 20.749359 8,850 200 290 3392
2022-05-16 08:08:52 GMT 52.057068 20.752258 8,675 201 289 3456
2022-05-16 08:08:49 GMT 52.060810 20.754507 8,450 201 288 3520
2022-05-16 08:08:46 GMT 52.064301 20.756626 8,300 201 287 3520
2022-05-16 08:08:43 GMT 52.068512 20.759125 7,850 201 285 3520
2022-05-16 08:08:40 GMT 52.072495 20.761490 7,825 201 285 3520
2022-05-16 08:08:37 GMT 52.075706 20.763454 7,750 200 285 3520
2022-05-16 08:08:33 GMT 52.081154 20.766594 7,475 200 283 3392
2022-05-16 08:08:30 GMT 52.084854 20.768738 7,325 200 282 3264
2022-05-16 08:08:27 GMT 52.088791 20.771027 7,175 200 281 3136
2022-05-16 08:08:22 GMT 52.093689 20.773926 6,975 201 279 3200
2022-05-16 08:08:19 GMT 52.097775 20.776402 6,775 201 277 3328
2022-05-16 08:08:15 GMT 52.102615 20.779226 6,550 200 275 3456
2022-05-16 08:08:10 GMT 52.108612 20.782547 6,200 199 273 3648
2022-05-16 08:08:07 GMT 52.112457 20.784607 6,050 198 273 3776
2022-05-16 08:08:02 GMT 52.118954 20.787937 5,725 197 272 3904
2022-05-16 08:07:58 GMT 52.123749 20.790293 5,475 197 272 3520
2022-05-16 08:07:55 GMT 52.126682 20.791704 5,325 197 271 3200
2022-05-16 08:07:52 GMT 52.130035 20.793274 5,175 197 270 3008
2022-05-16 08:07:48 GMT 52.135529 20.795898 4,975 197 267 2368
2022-05-16 08:07:44 GMT 52.140926 20.798452 4,800 197 261 1984
2022-05-16 08:07:40 GMT 52.145069 20.800571 4,650 199 250 1152
2022-05-16 08:07:36 GMT 52.149307 20.802765 4,625 199 249 1152
2022-05-16 08:07:32 GMT 52.153564 20.805359 4,550 203 240 1984
2022-05-16 08:07:29 GMT 52.156197 20.807241 4,450 207 236 2112
2022-05-16 08:07:25 GMT 52.159882 20.810242 4,300 209 231 2176
2022-05-16 08:07:22 GMT 52.163364 20.813520 4,175 212 226 1792
2022-05-16 08:07:18 GMT 52.167183 20.817522 4,075 216 219 1536
2022-05-16 08:07:14 GMT 52.169769 20.821152 4,000 223 215 1280
2022-05-16 08:07:10 GMT 52.172195 20.825958 3,925 237 204 1024
2022-05-16 08:07:06 GMT 52.174351 20.832588 3,850 248 193 1024
2022-05-16 08:07:01 GMT 52.175327 20.837376 3,800 256 184 832
2022-05-16 08:06:58 GMT 52.175949 20.841370 3,750 258 178 640
2022-05-16 08:06:55 GMT 52.176544 20.845490 3,725 257 171 960
2022-05-16 08:06:49 GMT 52.177658 20.852991 3,575 256 159 1664
2022-05-16 08:06:45 GMT 52.178356 20.857622 3,475 256 155 2240
2022-05-16 08:06:39 GMT 52.179474 20.864639 3,200 256 155 2432
2022-05-16 08:06:34 GMT 52.180298 20.869598 3,025 256 155 2432
2022-05-16 08:06:31 GMT 52.180939 20.873718 2,875 256 155 2496
2022-05-16 08:06:28 GMT 52.181381 20.876692 2,725 257 155 2368
2022-05-16 08:06:25 GMT 52.181946 20.880508 2,650 257 155 2240
2022-05-16 08:06:18 GMT 52.182964 20.888069 2,425 259 154 2112
2022-05-16 08:06:15 GMT 52.183475 20.892151 2,300 263 155 1792
2022-05-16 08:06:10 GMT 52.183640 20.897522 2,175 273 154 1728
2022-05-16 08:06:05 GMT 52.183090 20.903397 2,000 292 151 1536
2022-05-16 08:05:59 GMT 52.181763 20.909424 1,850 293 151 1536
2022-05-16 08:05:54 GMT 52.180481 20.914459 1,725 293 148 1664
2022-05-16 08:05:48 GMT 52.178959 20.920322 1,525 293 146 2112
2022-05-16 08:05:45 GMT 52.178123 20.923540 1,425 294 146 1856
2022-05-16 08:05:40 GMT 52.176445 20.929583 1,225 295 145 1984
2022-05-16 08:05:36 GMT 52.175583 20.932541 1,150 296 145 1856
2022-05-16 08:05:29 GMT 52.173561 20.939470 925 296 144 1920

Making use of Plane Finder data

You are free to use the raw flight data, aircraft information and images provided in this report for your own purposes provided the data is correctly attributed to Plane Finder. We ask that you please credit Plane Finder and link to planefinder.net in close proximity to the content.

Optionally one of the following logos (no smaller then 150x24px) can be used and must link to planefinder.net

Embedding the Plane Finder map

You are welcome to embed the Plane Finder playback map on your website to offer visitors a more interactive experience. We suggest using the following HTML code:

<iframe src="//planefinder.net/data/report/LX1343-HB-AZF-7700-squawk-2022-05-16/map" width="800" height="600" seamless="seamless"></iframe>

Where our data comes from

Plane Finder has a global network of data feeds and antenna radars that receive data broadcast directly from aircraft. The primary technologies used are ADS-B and MLAT. We also show feeds from the FAA and a FLARM glider feed.

Click here to find out more about the Plane Finder network.

How we collect our data